<?xml version="1.0" encoding="utf-8"?>
<gpx xmlns:xsi="http://www.w3.org/2001/XMLSchema-instance" xmlns:xsd="http://www.w3.org/2001/XMLSchema" version="1.1" creator="Shapelink.com" xmlns="http://www.topografix.com/GPX/1/1" xmlns:gpxtpx="http://www.garmin.com/xmlschemas/TrackPointExtension/v1">
  <metadata>
    <name>Andet 21.22 km, 2017-11-03</name>
    <desc></desc>
    <author><name>Bengt-Åke Forslund</name></author> 
    <time>2017-11-03T14:13:27Z</time>
  </metadata>
  <trk>
    <name>Andet 21.22 km, 2017-11-03</name>
    <trkseg>
      <trkpt lat="59.8534507" lon="17.5843565">
        <ele>28.0155</ele>
        <time>2017-11-03T14:13:27Z</time>
      </trkpt>
      <trkpt lat="59.8535833" lon="17.5841041">
        <ele>28.4962</ele>
        <time>2017-11-03T14:13:32Z</time>
      </trkpt>
      <trkpt lat="59.8537905" lon="17.5836773">
        <ele>28.0155</ele>
        <time>2017-11-03T14:13:41Z</time>
      </trkpt>
      <trkpt lat="59.8539175" lon="17.5833686">
        <ele>30.4188</ele>
        <time>2017-11-03T14:13:48Z</time>
      </trkpt>
      <trkpt lat="59.8540616" lon="17.5830234">
        <ele>31.3801</ele>
        <time>2017-11-03T14:13:56Z</time>
      </trkpt>
      <trkpt lat="59.8541743" lon="17.5826466">
        <ele>30.8995</ele>
        <time>2017-11-03T14:14:04Z</time>
      </trkpt>
      <trkpt lat="59.85431" lon="17.5822303">
        <ele>31.3801</ele>
        <time>2017-11-03T14:14:11Z</time>
      </trkpt>
      <trkpt lat="59.8544653" lon="17.5817731">
        <ele>31.8607</ele>
        <time>2017-11-03T14:14:19Z</time>
      </trkpt>
      <trkpt lat="59.8545257" lon="17.5814518">
        <ele>32.3416</ele>
        <time>2017-11-03T14:14:25Z</time>
      </trkpt>
      <trkpt lat="59.8544601" lon="17.5812561">
        <ele>31.8607</ele>
        <time>2017-11-03T14:14:29Z</time>
      </trkpt>
      <trkpt lat="59.8542949" lon="17.5810018">
        <ele>30.8995</ele>
        <time>2017-11-03T14:14:36Z</time>
      </trkpt>
      <trkpt lat="59.8541081" lon="17.580652">
        <ele>29.9381</ele>
        <time>2017-11-03T14:14:43Z</time>
      </trkpt>
      <trkpt lat="59.8539409" lon="17.5801831">
        <ele>28.4962</ele>
        <time>2017-11-03T14:14:50Z</time>
      </trkpt>
      <trkpt lat="59.8537246" lon="17.5795342">
        <ele>28.0155</ele>
        <time>2017-11-03T14:14:59Z</time>
      </trkpt>
      <trkpt lat="59.8535211" lon="17.5788591">
        <ele>28.4962</ele>
        <time>2017-11-03T14:15:07Z</time>
      </trkpt>
      <trkpt lat="59.8533939" lon="17.5784761">
        <ele>27.0543</ele>
        <time>2017-11-03T14:15:12Z</time>
      </trkpt>
      <trkpt lat="59.8534058" lon="17.5781593">
        <ele>27.5349</ele>
        <time>2017-11-03T14:15:16Z</time>
      </trkpt>
      <trkpt lat="59.8534932" lon="17.5775021">
        <ele>30.8995</ele>
        <time>2017-11-03T14:15:25Z</time>
      </trkpt>
      <trkpt lat="59.8535335" lon="17.5769337">
        <ele>32.3416</ele>
        <time>2017-11-03T14:15:33Z</time>
      </trkpt>
      <trkpt lat="59.8534628" lon="17.576699">
        <ele>32.8223</ele>
        <time>2017-11-03T14:15:37Z</time>
      </trkpt>
      <trkpt lat="59.8532497" lon="17.5765034">
        <ele>31.3801</ele>
        <time>2017-11-03T14:15:42Z</time>
      </trkpt>
      <trkpt lat="59.8531546" lon="17.5764433">
        <ele>31.3801</ele>
        <time>2017-11-03T14:15:44Z</time>
      </trkpt>
      <trkpt lat="59.8530279" lon="17.5762968">
        <ele>31.3801</ele>
        <time>2017-11-03T14:15:47Z</time>
      </trkpt>
      <trkpt lat="59.8529498" lon="17.5761225">
        <ele>30.4188</ele>
        <time>2017-11-03T14:15:50Z</time>
      </trkpt>
      <trkpt lat="59.8528923" lon="17.575832">
        <ele>29.9381</ele>
        <time>2017-11-03T14:15:54Z</time>
      </trkpt>
      <trkpt lat="59.8527958" lon="17.575514">
        <ele>28.4962</ele>
        <time>2017-11-03T14:15:59Z</time>
      </trkpt>
      <trkpt lat="59.8527243" lon="17.5752446">
        <ele>29.4575</ele>
        <time>2017-11-03T14:16:04Z</time>
      </trkpt>
      <trkpt lat="59.8526974" lon="17.5748417">
        <ele>31.3801</ele>
        <time>2017-11-03T14:16:09Z</time>
      </trkpt>
      <trkpt lat="59.8526415" lon="17.5745028">
        <ele>32.3416</ele>
        <time>2017-11-03T14:16:14Z</time>
      </trkpt>
      <trkpt lat="59.852543" lon="17.57413">
        <ele>32.3416</ele>
        <time>2017-11-03T14:16:19Z</time>
      </trkpt>
      <trkpt lat="59.8525182" lon="17.574016">
        <ele>32.8223</ele>
        <time>2017-11-03T14:16:20Z</time>
      </trkpt>
      <trkpt lat="59.8524415" lon="17.5734383">
        <ele>31.3801</ele>
        <time>2017-11-03T14:16:25Z</time>
      </trkpt>
      <trkpt lat="59.8523829" lon="17.573284">
        <ele>30.8995</ele>
        <time>2017-11-03T14:16:27Z</time>
      </trkpt>
      <trkpt lat="59.8521982" lon="17.572941">
        <ele>29.4575</ele>
        <time>2017-11-03T14:16:33Z</time>
      </trkpt>
      <trkpt lat="59.8521481" lon="17.5728531">
        <ele>28.0155</ele>
        <time>2017-11-03T14:16:35Z</time>
      </trkpt>
      <trkpt lat="59.8520377" lon="17.5724944">
        <ele>26.0929</ele>
        <time>2017-11-03T14:16:40Z</time>
      </trkpt>
      <trkpt lat="59.8520379" lon="17.5722313">
        <ele>26.0929</ele>
        <time>2017-11-03T14:16:44Z</time>
      </trkpt>
      <trkpt lat="59.8520386" lon="17.5721718">
        <ele>26.0929</ele>
        <time>2017-11-03T14:16:45Z</time>
      </trkpt>
      <trkpt lat="59.8520051" lon="17.57172">
        <ele>27.0543</ele>
        <time>2017-11-03T14:16:51Z</time>
      </trkpt>
      <trkpt lat="59.8520117" lon="17.5712186">
        <ele>29.4575</ele>
        <time>2017-11-03T14:16:57Z</time>
      </trkpt>
      <trkpt lat="59.8520194" lon="17.5711284">
        <ele>29.4575</ele>
        <time>2017-11-03T14:16:58Z</time>
      </trkpt>
      <trkpt lat="59.8520294" lon="17.5709348">
        <ele>31.3801</ele>
        <time>2017-11-03T14:17:00Z</time>
      </trkpt>
      <trkpt lat="59.8519853" lon="17.5705638">
        <ele>31.8607</ele>
        <time>2017-11-03T14:17:04Z</time>
      </trkpt>
      <trkpt lat="59.8519742" lon="17.5701929">
        <ele>32.8223</ele>
        <time>2017-11-03T14:17:08Z</time>
      </trkpt>
      <trkpt lat="59.8519652" lon="17.5697257">
        <ele>35.2255</ele>
        <time>2017-11-03T14:17:13Z</time>
      </trkpt>
      <trkpt lat="59.852032" lon="17.5693777">
        <ele>37.1481</ele>
        <time>2017-11-03T14:17:17Z</time>
      </trkpt>
      <trkpt lat="59.852165" lon="17.569107">
        <ele>38.5901</ele>
        <time>2017-11-03T14:17:21Z</time>
      </trkpt>
      <trkpt lat="59.8523161" lon="17.5689314">
        <ele>39.5513</ele>
        <time>2017-11-03T14:17:25Z</time>
      </trkpt>
      <trkpt lat="59.8525303" lon="17.5687211">
        <ele>41.9547</ele>
        <time>2017-11-03T14:17:31Z</time>
      </trkpt>
      <trkpt lat="59.8526376" lon="17.5686045">
        <ele>42.4354</ele>
        <time>2017-11-03T14:17:34Z</time>
      </trkpt>
      <trkpt lat="59.8527732" lon="17.5685043">
        <ele>43.8773</ele>
        <time>2017-11-03T14:17:38Z</time>
      </trkpt>
      <trkpt lat="59.8529399" lon="17.5684407">
        <ele>44.8386</ele>
        <time>2017-11-03T14:17:42Z</time>
      </trkpt>
      <trkpt lat="59.8530896" lon="17.5683749">
        <ele>45.7999</ele>
        <time>2017-11-03T14:17:46Z</time>
      </trkpt>
      <trkpt lat="59.8532265" lon="17.5682354">
        <ele>46.2806</ele>
        <time>2017-11-03T14:17:51Z</time>
      </trkpt>
      <trkpt lat="59.853298" lon="17.5682972">
        <ele>45.7999</ele>
        <time>2017-11-03T14:17:53Z</time>
      </trkpt>
      <trkpt lat="59.8534825" lon="17.5685098">
        <ele>42.916</ele>
        <time>2017-11-03T14:17:58Z</time>
      </trkpt>
      <trkpt lat="59.8536274" lon="17.5685158">
        <ele>44.8386</ele>
        <time>2017-11-03T14:18:03Z</time>
      </trkpt>
      <trkpt lat="59.853619" lon="17.5683046">
        <ele>40.9934</ele>
        <time>2017-11-03T14:18:08Z</time>
      </trkpt>
      <trkpt lat="59.8537273" lon="17.5681185">
        <ele>38.5901</ele>
        <time>2017-11-03T14:18:13Z</time>
      </trkpt>
      <trkpt lat="59.8537951" lon="17.5680107">
        <ele>39.0707</ele>
        <time>2017-11-03T14:18:15Z</time>
      </trkpt>
      <trkpt lat="59.8538743" lon="17.567874">
        <ele>39.5513</ele>
        <time>2017-11-03T14:18:17Z</time>
      </trkpt>
      <trkpt lat="59.8538848" lon="17.5674872">
        <ele>36.1868</ele>
        <time>2017-11-03T14:18:21Z</time>
      </trkpt>
      <trkpt lat="59.8538667" lon="17.5672622">
        <ele>35.7061</ele>
        <time>2017-11-03T14:18:23Z</time>
      </trkpt>
      <trkpt lat="59.8539326" lon="17.5666891">
        <ele>38.1094</ele>
        <time>2017-11-03T14:18:28Z</time>
      </trkpt>
      <trkpt lat="59.8539619" lon="17.5665885">
        <ele>38.5901</ele>
        <time>2017-11-03T14:18:29Z</time>
      </trkpt>
      <trkpt lat="59.8540233" lon="17.5664025">
        <ele>39.0707</ele>
        <time>2017-11-03T14:18:31Z</time>
      </trkpt>
      <trkpt lat="59.854069" lon="17.5660504">
        <ele>39.5513</ele>
        <time>2017-11-03T14:18:35Z</time>
      </trkpt>
      <trkpt lat="59.8541547" lon="17.5656024">
        <ele>37.6287</ele>
        <time>2017-11-03T14:18:40Z</time>
      </trkpt>
      <trkpt lat="59.854176" lon="17.5652879">
        <ele>37.6287</ele>
        <time>2017-11-03T14:18:43Z</time>
      </trkpt>
      <trkpt lat="59.8541567" lon="17.565196">
        <ele>36.6675</ele>
        <time>2017-11-03T14:18:44Z</time>
      </trkpt>
      <trkpt lat="59.8541128" lon="17.5649708">
        <ele>34.7449</ele>
        <time>2017-11-03T14:18:47Z</time>
      </trkpt>
      <trkpt lat="59.8541452" lon="17.5646299">
        <ele>33.7834</ele>
        <time>2017-11-03T14:18:52Z</time>
      </trkpt>
      <trkpt lat="59.854192" lon="17.5641768">
        <ele>36.6675</ele>
        <time>2017-11-03T14:18:58Z</time>
      </trkpt>
      <trkpt lat="59.8542599" lon="17.5635768">
        <ele>37.6287</ele>
        <time>2017-11-03T14:19:05Z</time>
      </trkpt>
      <trkpt lat="59.8542655" lon="17.563159">
        <ele>37.1481</ele>
        <time>2017-11-03T14:19:09Z</time>
      </trkpt>
      <trkpt lat="59.854336" lon="17.562385">
        <ele>39.5513</ele>
        <time>2017-11-03T14:19:17Z</time>
      </trkpt>
      <trkpt lat="59.854393" lon="17.5618256">
        <ele>40.9934</ele>
        <time>2017-11-03T14:19:24Z</time>
      </trkpt>
      <trkpt lat="59.8543951" lon="17.5617297">
        <ele>40.9934</ele>
        <time>2017-11-03T14:19:25Z</time>
      </trkpt>
      <trkpt lat="59.8543873" lon="17.5614702">
        <ele>41.474</ele>
        <time>2017-11-03T14:19:28Z</time>
      </trkpt>
      <trkpt lat="59.8543159" lon="17.560989">
        <ele>39.0707</ele>
        <time>2017-11-03T14:19:36Z</time>
      </trkpt>
      <trkpt lat="59.8542033" lon="17.5604346">
        <ele>36.6675</ele>
        <time>2017-11-03T14:19:43Z</time>
      </trkpt>
      <trkpt lat="59.8540559" lon="17.5599847">
        <ele>35.2255</ele>
        <time>2017-11-03T14:19:48Z</time>
      </trkpt>
      <trkpt lat="59.853872" lon="17.5596109">
        <ele>34.2642</ele>
        <time>2017-11-03T14:19:53Z</time>
      </trkpt>
      <trkpt lat="59.8537755" lon="17.5592816">
        <ele>34.7449</ele>
        <time>2017-11-03T14:19:57Z</time>
      </trkpt>
      <trkpt lat="59.8537434" lon="17.5590765">
        <ele>35.2255</ele>
        <time>2017-11-03T14:19:59Z</time>
      </trkpt>
      <trkpt lat="59.8537087" lon="17.5580294">
        <ele>36.6675</ele>
        <time>2017-11-03T14:20:09Z</time>
      </trkpt>
      <trkpt lat="59.8537122" lon="17.5574344">
        <ele>37.1481</ele>
        <time>2017-11-03T14:20:15Z</time>
      </trkpt>
      <trkpt lat="59.8537152" lon="17.557118">
        <ele>38.1094</ele>
        <time>2017-11-03T14:20:18Z</time>
      </trkpt>
      <trkpt lat="59.8536503" lon="17.556332">
        <ele>39.0707</ele>
        <time>2017-11-03T14:20:26Z</time>
      </trkpt>
      <trkpt lat="59.8536055" lon="17.555991">
        <ele>38.5901</ele>
        <time>2017-11-03T14:20:30Z</time>
      </trkpt>
      <trkpt lat="59.8536526" lon="17.5555344">
        <ele>38.5901</ele>
        <time>2017-11-03T14:20:35Z</time>
      </trkpt>
      <trkpt lat="59.8538455" lon="17.554874">
        <ele>38.5901</ele>
        <time>2017-11-03T14:20:42Z</time>
      </trkpt>
      <trkpt lat="59.8539153" lon="17.5546858">
        <ele>38.1094</ele>
        <time>2017-11-03T14:20:44Z</time>
      </trkpt>
      <trkpt lat="59.8541428" lon="17.5542984">
        <ele>38.5901</ele>
        <time>2017-11-03T14:20:49Z</time>
      </trkpt>
      <trkpt lat="59.8542423" lon="17.5541521">
        <ele>38.5901</ele>
        <time>2017-11-03T14:20:51Z</time>
      </trkpt>
      <trkpt lat="59.854406" lon="17.5538977">
        <ele>41.474</ele>
        <time>2017-11-03T14:20:55Z</time>
      </trkpt>
      <trkpt lat="59.8544811" lon="17.5537858">
        <ele>41.9547</ele>
        <time>2017-11-03T14:20:58Z</time>
      </trkpt>
      <trkpt lat="59.854523" lon="17.5537304">
        <ele>40.9934</ele>
        <time>2017-11-03T14:21:00Z</time>
      </trkpt>
      <trkpt lat="59.8546656" lon="17.5534478">
        <ele>40.5128</ele>
        <time>2017-11-03T14:21:07Z</time>
      </trkpt>
      <trkpt lat="59.8549027" lon="17.5531138">
        <ele>40.9934</ele>
        <time>2017-11-03T14:21:14Z</time>
      </trkpt>
      <trkpt lat="59.854968" lon="17.5529868">
        <ele>40.0321</ele>
        <time>2017-11-03T14:21:16Z</time>
      </trkpt>
      <trkpt lat="59.8551109" lon="17.5527101">
        <ele>37.6287</ele>
        <time>2017-11-03T14:21:20Z</time>
      </trkpt>
      <trkpt lat="59.8554177" lon="17.552045">
        <ele>34.2642</ele>
        <time>2017-11-03T14:21:29Z</time>
      </trkpt>
      <trkpt lat="59.8555747" lon="17.5516977">
        <ele>34.7449</ele>
        <time>2017-11-03T14:21:34Z</time>
      </trkpt>
      <trkpt lat="59.8556508" lon="17.5514129">
        <ele>35.2255</ele>
        <time>2017-11-03T14:21:38Z</time>
      </trkpt>
      <trkpt lat="59.855636" lon="17.5511219">
        <ele>36.6675</ele>
        <time>2017-11-03T14:21:42Z</time>
      </trkpt>
      <trkpt lat="59.8556146" lon="17.5510709">
        <ele>36.6675</ele>
        <time>2017-11-03T14:21:43Z</time>
      </trkpt>
      <trkpt lat="59.8554312" lon="17.5506895">
        <ele>37.1481</ele>
        <time>2017-11-03T14:21:50Z</time>
      </trkpt>
      <trkpt lat="59.8552539" lon="17.5502776">
        <ele>38.1094</ele>
        <time>2017-11-03T14:21:57Z</time>
      </trkpt>
      <trkpt lat="59.8551581" lon="17.5501263">
        <ele>38.1094</ele>
        <time>2017-11-03T14:22:00Z</time>
      </trkpt>
      <trkpt lat="59.8550316" lon="17.5500345">
        <ele>38.1094</ele>
        <time>2017-11-03T14:22:03Z</time>
      </trkpt>
      <trkpt lat="59.8548649" lon="17.5498575">
        <ele>37.1481</ele>
        <time>2017-11-03T14:22:07Z</time>
      </trkpt>
      <trkpt lat="59.8546883" lon="17.5495558">
        <ele>36.6675</ele>
        <time>2017-11-03T14:22:12Z</time>
      </trkpt>
      <trkpt lat="59.8544672" lon="17.5494191">
        <ele>35.7061</ele>
        <time>2017-11-03T14:22:17Z</time>
      </trkpt>
      <trkpt lat="59.8541696" lon="17.5492567">
        <ele>36.1868</ele>
        <time>2017-11-03T14:22:22Z</time>
      </trkpt>
      <trkpt lat="59.8539593" lon="17.5493005">
        <ele>35.2255</ele>
        <time>2017-11-03T14:22:26Z</time>
      </trkpt>
      <trkpt lat="59.8539102" lon="17.5493208">
        <ele>34.7449</ele>
        <time>2017-11-03T14:22:27Z</time>
      </trkpt>
      <trkpt lat="59.8536117" lon="17.5493278">
        <ele>34.7449</ele>
        <time>2017-11-03T14:22:33Z</time>
      </trkpt>
      <trkpt lat="59.8534627" lon="17.5493291">
        <ele>34.2642</ele>
        <time>2017-11-03T14:22:37Z</time>
      </trkpt>
      <trkpt lat="59.8533454" lon="17.5493499">
        <ele>33.7834</ele>
        <time>2017-11-03T14:22:40Z</time>
      </trkpt>
      <trkpt lat="59.8531297" lon="17.5494341">
        <ele>32.3416</ele>
        <time>2017-11-03T14:22:46Z</time>
      </trkpt>
      <trkpt lat="59.8530664" lon="17.5495275">
        <ele>32.3416</ele>
        <time>2017-11-03T14:22:49Z</time>
      </trkpt>
      <trkpt lat="59.8530781" lon="17.5495534">
        <ele>31.8607</ele>
        <time>2017-11-03T14:22:51Z</time>
      </trkpt>
      <trkpt lat="59.8531803" lon="17.5494285">
        <ele>32.8223</ele>
        <time>2017-11-03T14:22:57Z</time>
      </trkpt>
      <trkpt lat="59.8533628" lon="17.5493777">
        <ele>35.2255</ele>
        <time>2017-11-03T14:23:03Z</time>
      </trkpt>
      <trkpt lat="59.8535643" lon="17.5493494">
        <ele>37.1481</ele>
        <time>2017-11-03T14:23:08Z</time>
      </trkpt>
      <trkpt lat="59.8537502" lon="17.5493721">
        <ele>38.1094</ele>
        <time>2017-11-03T14:23:12Z</time>
      </trkpt>
      <trkpt lat="59.8539875" lon="17.5493084">
        <ele>40.0321</ele>
        <time>2017-11-03T14:23:17Z</time>
      </trkpt>
      <trkpt lat="59.8540376" lon="17.5493045">
        <ele>39.5513</ele>
        <time>2017-11-03T14:23:18Z</time>
      </trkpt>
      <trkpt lat="59.8543117" lon="17.5494305">
        <ele>38.5901</ele>
        <time>2017-11-03T14:23:23Z</time>
      </trkpt>
      <trkpt lat="59.8545024" lon="17.5495481">
        <ele>40.5128</ele>
        <time>2017-11-03T14:23:27Z</time>
      </trkpt>
      <trkpt lat="59.8546394" lon="17.5496145">
        <ele>39.5513</ele>
        <time>2017-11-03T14:23:31Z</time>
      </trkpt>
      <trkpt lat="59.85468" lon="17.5496622">
        <ele>40.0321</ele>
        <time>2017-11-03T14:23:32Z</time>
      </trkpt>
      <trkpt lat="59.8548924" lon="17.5499858">
        <ele>40.5128</ele>
        <time>2017-11-03T14:23:38Z</time>
      </trkpt>
      <trkpt lat="59.8550794" lon="17.550122">
        <ele>40.9934</ele>
        <time>2017-11-03T14:23:43Z</time>
      </trkpt>
      <trkpt lat="59.8552731" lon="17.5503865">
        <ele>40.0321</ele>
        <time>2017-11-03T14:23:49Z</time>
      </trkpt>
      <trkpt lat="59.8553964" lon="17.5506946">
        <ele>39.0707</ele>
        <time>2017-11-03T14:23:53Z</time>
      </trkpt>
      <trkpt lat="59.8555368" lon="17.5509867">
        <ele>38.5901</ele>
        <time>2017-11-03T14:23:57Z</time>
      </trkpt>
      <trkpt lat="59.8556757" lon="17.5514421">
        <ele>36.6675</ele>
        <time>2017-11-03T14:24:02Z</time>
      </trkpt>
      <trkpt lat="59.8557142" lon="17.5515214">
        <ele>37.1481</ele>
        <time>2017-11-03T14:24:03Z</time>
      </trkpt>
      <trkpt lat="59.8560351" lon="17.5521938">
        <ele>37.1481</ele>
        <time>2017-11-03T14:24:12Z</time>
      </trkpt>
      <trkpt lat="59.8562547" lon="17.5527488">
        <ele>36.1868</ele>
        <time>2017-11-03T14:24:18Z</time>
      </trkpt>
      <trkpt lat="59.8562485" lon="17.5530966">
        <ele>35.2255</ele>
        <time>2017-11-03T14:24:22Z</time>
      </trkpt>
      <trkpt lat="59.8562774" lon="17.5534096">
        <ele>33.7834</ele>
        <time>2017-11-03T14:24:26Z</time>
      </trkpt>
      <trkpt lat="59.8564086" lon="17.5536078">
        <ele>33.3029</ele>
        <time>2017-11-03T14:24:29Z</time>
      </trkpt>
      <trkpt lat="59.8565106" lon="17.5537291">
        <ele>33.3029</ele>
        <time>2017-11-03T14:24:31Z</time>
      </trkpt>
      <trkpt lat="59.856607" lon="17.553874">
        <ele>32.8223</ele>
        <time>2017-11-03T14:24:33Z</time>
      </trkpt>
      <trkpt lat="59.8567333" lon="17.5542589">
        <ele>32.8223</ele>
        <time>2017-11-03T14:24:37Z</time>
      </trkpt>
      <trkpt lat="59.8568267" lon="17.5546397">
        <ele>33.3029</ele>
        <time>2017-11-03T14:24:41Z</time>
      </trkpt>
      <trkpt lat="59.8571021" lon="17.5552112">
        <ele>33.7834</ele>
        <time>2017-11-03T14:24:50Z</time>
      </trkpt>
      <trkpt lat="59.8572093" lon="17.5554695">
        <ele>33.7834</ele>
        <time>2017-11-03T14:24:55Z</time>
      </trkpt>
      <trkpt lat="59.8573741" lon="17.5554355">
        <ele>34.2642</ele>
        <time>2017-11-03T14:24:59Z</time>
      </trkpt>
      <trkpt lat="59.8574654" lon="17.5553878">
        <ele>34.7449</ele>
        <time>2017-11-03T14:25:01Z</time>
      </trkpt>
      <trkpt lat="59.8576036" lon="17.5552619">
        <ele>34.2642</ele>
        <time>2017-11-03T14:25:04Z</time>
      </trkpt>
      <trkpt lat="59.857759" lon="17.5550589">
        <ele>34.2642</ele>
        <time>2017-11-03T14:25:07Z</time>
      </trkpt>
      <trkpt lat="59.8579536" lon="17.5546849">
        <ele>35.2255</ele>
        <time>2017-11-03T14:25:11Z</time>
      </trkpt>
      <trkpt lat="59.8580277" lon="17.5542864">
        <ele>35.2255</ele>
        <time>2017-11-03T14:25:15Z</time>
      </trkpt>
      <trkpt lat="59.8580166" lon="17.5541883">
        <ele>34.7449</ele>
        <time>2017-11-03T14:25:16Z</time>
      </trkpt>
      <trkpt lat="59.8579904" lon="17.5540051">
        <ele>33.7834</ele>
        <time>2017-11-03T14:25:18Z</time>
      </trkpt>
      <trkpt lat="59.8579771" lon="17.5536809">
        <ele>31.3801</ele>
        <time>2017-11-03T14:25:22Z</time>
      </trkpt>
      <trkpt lat="59.8579672" lon="17.5535094">
        <ele>31.8607</ele>
        <time>2017-11-03T14:25:24Z</time>
      </trkpt>
      <trkpt lat="59.8578718" lon="17.5532871">
        <ele>32.8223</ele>
        <time>2017-11-03T14:25:28Z</time>
      </trkpt>
      <trkpt lat="59.8578353" lon="17.553273">
        <ele>32.8223</ele>
        <time>2017-11-03T14:25:29Z</time>
      </trkpt>
      <trkpt lat="59.8575757" lon="17.5532012">
        <ele>33.3029</ele>
        <time>2017-11-03T14:25:36Z</time>
      </trkpt>
      <trkpt lat="59.8574786" lon="17.5531557">
        <ele>33.7834</ele>
        <time>2017-11-03T14:25:39Z</time>
      </trkpt>
      <trkpt lat="59.857447" lon="17.5529811">
        <ele>33.7834</ele>
        <time>2017-11-03T14:25:43Z</time>
      </trkpt>
      <trkpt lat="59.8574109" lon="17.5529209">
        <ele>33.3029</ele>
        <time>2017-11-03T14:25:46Z</time>
      </trkpt>
      <trkpt lat="59.8574061" lon="17.5529664">
        <ele>33.7834</ele>
        <time>2017-11-03T14:25:51Z</time>
      </trkpt>
      <trkpt lat="59.8574093" lon="17.5530215">
        <ele>33.3029</ele>
        <time>2017-11-03T14:25:55Z</time>
      </trkpt>
      <trkpt lat="59.8574689" lon="17.5531598">
        <ele>32.3416</ele>
        <time>2017-11-03T14:25:59Z</time>
      </trkpt>
      <trkpt lat="59.8576368" lon="17.553223">
        <ele>31.3801</ele>
        <time>2017-11-03T14:26:05Z</time>
      </trkpt>
      <trkpt lat="59.8578797" lon="17.5533026">
        <ele>29.9381</ele>
        <time>2017-11-03T14:26:11Z</time>
      </trkpt>
      <trkpt lat="59.857931" lon="17.5535891">
        <ele>28.9769</ele>
        <time>2017-11-03T14:26:15Z</time>
      </trkpt>
      <trkpt lat="59.8579371" lon="17.5536753">
        <ele>28.9769</ele>
        <time>2017-11-03T14:26:16Z</time>
      </trkpt>
      <trkpt lat="59.8579409" lon="17.5538483">
        <ele>28.9769</ele>
        <time>2017-11-03T14:26:18Z</time>
      </trkpt>
      <trkpt lat="59.8579813" lon="17.5541708">
        <ele>28.9769</ele>
        <time>2017-11-03T14:26:22Z</time>
      </trkpt>
      <trkpt lat="59.8579265" lon="17.5545683">
        <ele>28.4962</ele>
        <time>2017-11-03T14:26:27Z</time>
      </trkpt>
      <trkpt lat="59.8578943" lon="17.5546374">
        <ele>28.9769</ele>
        <time>2017-11-03T14:26:28Z</time>
      </trkpt>
      <trkpt lat="59.8578031" lon="17.5548314">
        <ele>30.4188</ele>
        <time>2017-11-03T14:26:31Z</time>
      </trkpt>
      <trkpt lat="59.8577087" lon="17.5549942">
        <ele>31.8607</ele>
        <time>2017-11-03T14:26:34Z</time>
      </trkpt>
      <trkpt lat="59.8576236" lon="17.5551138">
        <ele>32.8223</ele>
        <time>2017-11-03T14:26:37Z</time>
      </trkpt>
      <trkpt lat="59.8574196" lon="17.555309">
        <ele>34.2642</ele>
        <time>2017-11-03T14:26:44Z</time>
      </trkpt>
      <trkpt lat="59.8572002" lon="17.5554111">
        <ele>35.2255</ele>
        <time>2017-11-03T14:26:51Z</time>
      </trkpt>
      <trkpt lat="59.8571705" lon="17.5554096">
        <ele>35.2255</ele>
        <time>2017-11-03T14:26:52Z</time>
      </trkpt>
      <trkpt lat="59.8570587" lon="17.5551375">
        <ele>34.7449</ele>
        <time>2017-11-03T14:26:57Z</time>
      </trkpt>
      <trkpt lat="59.8569178" lon="17.5548381">
        <ele>33.7834</ele>
        <time>2017-11-03T14:27:02Z</time>
      </trkpt>
      <trkpt lat="59.8567221" lon="17.5543525">
        <ele>32.8223</ele>
        <time>2017-11-03T14:27:10Z</time>
      </trkpt>
      <trkpt lat="59.8566494" lon="17.5539777">
        <ele>32.8223</ele>
        <time>2017-11-03T14:27:15Z</time>
      </trkpt>
      <trkpt lat="59.8564179" lon="17.5535836">
        <ele>33.7834</ele>
        <time>2017-11-03T14:27:22Z</time>
      </trkpt>
      <trkpt lat="59.8563421" lon="17.5535152">
        <ele>34.2642</ele>
        <time>2017-11-03T14:27:24Z</time>
      </trkpt>
      <trkpt lat="59.8562185" lon="17.5532617">
        <ele>35.7061</ele>
        <time>2017-11-03T14:27:29Z</time>
      </trkpt>
      <trkpt lat="59.8562281" lon="17.5529832">
        <ele>37.1481</ele>
        <time>2017-11-03T14:27:34Z</time>
      </trkpt>
      <trkpt lat="59.8562457" lon="17.5526951">
        <ele>36.1868</ele>
        <time>2017-11-03T14:27:38Z</time>
      </trkpt>
      <trkpt lat="59.8561918" lon="17.5525283">
        <ele>36.1868</ele>
        <time>2017-11-03T14:27:40Z</time>
      </trkpt>
      <trkpt lat="59.856008" lon="17.5520759">
        <ele>36.1868</ele>
        <time>2017-11-03T14:27:46Z</time>
      </trkpt>
      <trkpt lat="59.8557469" lon="17.5515313">
        <ele>33.7834</ele>
        <time>2017-11-03T14:27:54Z</time>
      </trkpt>
      <trkpt lat="59.8557092" lon="17.5514649">
        <ele>33.3029</ele>
        <time>2017-11-03T14:27:55Z</time>
      </trkpt>
      <trkpt lat="59.8556202" lon="17.5511389">
        <ele>33.3029</ele>
        <time>2017-11-03T14:27:59Z</time>
      </trkpt>
      <trkpt lat="59.8555426" lon="17.5509313">
        <ele>34.2642</ele>
        <time>2017-11-03T14:28:03Z</time>
      </trkpt>
      <trkpt lat="59.8553749" lon="17.550548">
        <ele>35.7061</ele>
        <time>2017-11-03T14:28:10Z</time>
      </trkpt>
      <trkpt lat="59.8552337" lon="17.5502329">
        <ele>36.1868</ele>
        <time>2017-11-03T14:28:16Z</time>
      </trkpt>
      <trkpt lat="59.8550631" lon="17.5500314">
        <ele>35.7061</ele>
        <time>2017-11-03T14:28:21Z</time>
      </trkpt>
      <trkpt lat="59.8549308" lon="17.5499586">
        <ele>35.2255</ele>
        <time>2017-11-03T14:28:24Z</time>
      </trkpt>
      <trkpt lat="59.8547416" lon="17.5496533">
        <ele>34.2642</ele>
        <time>2017-11-03T14:28:29Z</time>
      </trkpt>
      <trkpt lat="59.8547021" lon="17.549591">
        <ele>34.2642</ele>
        <time>2017-11-03T14:28:30Z</time>
      </trkpt>
      <trkpt lat="59.8544929" lon="17.5494482">
        <ele>33.3029</ele>
        <time>2017-11-03T14:28:35Z</time>
      </trkpt>
      <trkpt lat="59.8544417" lon="17.5494258">
        <ele>32.8223</ele>
        <time>2017-11-03T14:28:36Z</time>
      </trkpt>
      <trkpt lat="59.8541568" lon="17.5492861">
        <ele>31.8607</ele>
        <time>2017-11-03T14:28:41Z</time>
      </trkpt>
      <trkpt lat="59.8539704" lon="17.5493047">
        <ele>33.3029</ele>
        <time>2017-11-03T14:28:45Z</time>
      </trkpt>
      <trkpt lat="59.8538033" lon="17.5493166">
        <ele>33.7834</ele>
        <time>2017-11-03T14:28:48Z</time>
      </trkpt>
      <trkpt lat="59.853699" lon="17.5493248">
        <ele>35.2255</ele>
        <time>2017-11-03T14:28:50Z</time>
      </trkpt>
      <trkpt lat="59.8534839" lon="17.5493286">
        <ele>34.7449</ele>
        <time>2017-11-03T14:28:55Z</time>
      </trkpt>
      <trkpt lat="59.8533363" lon="17.5493361">
        <ele>34.7449</ele>
        <time>2017-11-03T14:28:58Z</time>
      </trkpt>
      <trkpt lat="59.8531069" lon="17.549485">
        <ele>34.7449</ele>
        <time>2017-11-03T14:29:03Z</time>
      </trkpt>
      <trkpt lat="59.8529883" lon="17.5496964">
        <ele>33.7834</ele>
        <time>2017-11-03T14:29:07Z</time>
      </trkpt>
      <trkpt lat="59.8529597" lon="17.549726">
        <ele>33.7834</ele>
        <time>2017-11-03T14:29:08Z</time>
      </trkpt>
      <trkpt lat="59.8529077" lon="17.5499248">
        <ele>33.3029</ele>
        <time>2017-11-03T14:29:13Z</time>
      </trkpt>
      <trkpt lat="59.8529202" lon="17.5499735">
        <ele>33.3029</ele>
        <time>2017-11-03T14:29:14Z</time>
      </trkpt>
      <trkpt lat="59.8529931" lon="17.5503505">
        <ele>31.8607</ele>
        <time>2017-11-03T14:29:21Z</time>
      </trkpt>
      <trkpt lat="59.8530135" lon="17.5504521">
        <ele>31.8607</ele>
        <time>2017-11-03T14:29:23Z</time>
      </trkpt>
      <trkpt lat="59.8531586" lon="17.5505133">
        <ele>32.3416</ele>
        <time>2017-11-03T14:29:28Z</time>
      </trkpt>
      <trkpt lat="59.8534395" lon="17.5504671">
        <ele>33.3029</ele>
        <time>2017-11-03T14:29:35Z</time>
      </trkpt>
      <trkpt lat="59.8537204" lon="17.5505068">
        <ele>34.7449</ele>
        <time>2017-11-03T14:29:42Z</time>
      </trkpt>
      <trkpt lat="59.8539423" lon="17.5505745">
        <ele>35.7061</ele>
        <time>2017-11-03T14:29:48Z</time>
      </trkpt>
      <trkpt lat="59.8542146" lon="17.5506894">
        <ele>36.1868</ele>
        <time>2017-11-03T14:29:55Z</time>
      </trkpt>
      <trkpt lat="59.854537" lon="17.5509183">
        <ele>36.6675</ele>
        <time>2017-11-03T14:30:03Z</time>
      </trkpt>
      <trkpt lat="59.8548624" lon="17.5511834">
        <ele>36.1868</ele>
        <time>2017-11-03T14:30:11Z</time>
      </trkpt>
      <trkpt lat="59.8549399" lon="17.5514315">
        <ele>35.7061</ele>
        <time>2017-11-03T14:30:15Z</time>
      </trkpt>
      <trkpt lat="59.8549082" lon="17.5515736">
        <ele>35.7061</ele>
        <time>2017-11-03T14:30:17Z</time>
      </trkpt>
      <trkpt lat="59.8546715" lon="17.5521956">
        <ele>36.6675</ele>
        <time>2017-11-03T14:30:26Z</time>
      </trkpt>
      <trkpt lat="59.8546228" lon="17.5523223">
        <ele>36.6675</ele>
        <time>2017-11-03T14:30:28Z</time>
      </trkpt>
      <trkpt lat="59.8546023" lon="17.5525419">
        <ele>37.1481</ele>
        <time>2017-11-03T14:30:32Z</time>
      </trkpt>
      <trkpt lat="59.8546478" lon="17.5526289">
        <ele>37.6287</ele>
        <time>2017-11-03T14:30:34Z</time>
      </trkpt>
      <trkpt lat="59.8548367" lon="17.552922">
        <ele>38.1094</ele>
        <time>2017-11-03T14:30:41Z</time>
      </trkpt>
      <trkpt lat="59.8548152" lon="17.5531368">
        <ele>37.6287</ele>
        <time>2017-11-03T14:30:45Z</time>
      </trkpt>
      <trkpt lat="59.8547246" lon="17.5532674">
        <ele>37.1481</ele>
        <time>2017-11-03T14:30:48Z</time>
      </trkpt>
      <trkpt lat="59.8545571" lon="17.5534794">
        <ele>36.6675</ele>
        <time>2017-11-03T14:30:54Z</time>
      </trkpt>
      <trkpt lat="59.8544457" lon="17.5536753">
        <ele>37.1481</ele>
        <time>2017-11-03T14:30:59Z</time>
      </trkpt>
      <trkpt lat="59.8543771" lon="17.5536389">
        <ele>37.1481</ele>
        <time>2017-11-03T14:31:01Z</time>
      </trkpt>
      <trkpt lat="59.8541247" lon="17.5533533">
        <ele>36.6675</ele>
        <time>2017-11-03T14:31:07Z</time>
      </trkpt>
      <trkpt lat="59.8537682" lon="17.553127">
        <ele>35.7061</ele>
        <time>2017-11-03T14:31:14Z</time>
      </trkpt>
      <trkpt lat="59.8533507" lon="17.5530505">
        <ele>35.2255</ele>
        <time>2017-11-03T14:31:22Z</time>
      </trkpt>
      <trkpt lat="59.8532616" lon="17.5530615">
        <ele>35.2255</ele>
        <time>2017-11-03T14:31:24Z</time>
      </trkpt>
      <trkpt lat="59.8529494" lon="17.5531716">
        <ele>34.2642</ele>
        <time>2017-11-03T14:31:31Z</time>
      </trkpt>
      <trkpt lat="59.8525549" lon="17.5534582">
        <ele>33.3029</ele>
        <time>2017-11-03T14:31:39Z</time>
      </trkpt>
      <trkpt lat="59.8525029" lon="17.5535101">
        <ele>33.3029</ele>
        <time>2017-11-03T14:31:40Z</time>
      </trkpt>
      <trkpt lat="59.852313" lon="17.5537461">
        <ele>33.7834</ele>
        <time>2017-11-03T14:31:44Z</time>
      </trkpt>
      <trkpt lat="59.8520604" lon="17.5541945">
        <ele>34.2642</ele>
        <time>2017-11-03T14:31:51Z</time>
      </trkpt>
      <trkpt lat="59.8519558" lon="17.5544435">
        <ele>34.2642</ele>
        <time>2017-11-03T14:31:55Z</time>
      </trkpt>
      <trkpt lat="59.8518983" lon="17.5546147">
        <ele>34.2642</ele>
        <time>2017-11-03T14:31:58Z</time>
      </trkpt>
      <trkpt lat="59.8518131" lon="17.5547196">
        <ele>34.2642</ele>
        <time>2017-11-03T14:32:02Z</time>
      </trkpt>
      <trkpt lat="59.8517188" lon="17.5545858">
        <ele>34.2642</ele>
        <time>2017-11-03T14:32:07Z</time>
      </trkpt>
      <trkpt lat="59.8514456" lon="17.5540602">
        <ele>32.3416</ele>
        <time>2017-11-03T14:32:15Z</time>
      </trkpt>
      <trkpt lat="59.8513205" lon="17.5538377">
        <ele>31.3801</ele>
        <time>2017-11-03T14:32:18Z</time>
      </trkpt>
      <trkpt lat="59.8510639" lon="17.553619">
        <ele>30.4188</ele>
        <time>2017-11-03T14:32:23Z</time>
      </trkpt>
      <trkpt lat="59.8509548" lon="17.5535892">
        <ele>29.9381</ele>
        <time>2017-11-03T14:32:25Z</time>
      </trkpt>
      <trkpt lat="59.8506238" lon="17.5536901">
        <ele>28.9769</ele>
        <time>2017-11-03T14:32:31Z</time>
      </trkpt>
      <trkpt lat="59.8500084" lon="17.5538492">
        <ele>28.0155</ele>
        <time>2017-11-03T14:32:42Z</time>
      </trkpt>
      <trkpt lat="59.8499607" lon="17.5538594">
        <ele>28.0155</ele>
        <time>2017-11-03T14:32:43Z</time>
      </trkpt>
      <trkpt lat="59.849822" lon="17.5537475">
        <ele>27.5349</ele>
        <time>2017-11-03T14:32:47Z</time>
      </trkpt>
      <trkpt lat="59.8498043" lon="17.5536762">
        <ele>27.0543</ele>
        <time>2017-11-03T14:32:48Z</time>
      </trkpt>
      <trkpt lat="59.8497112" lon="17.5533479">
        <ele>27.0543</ele>
        <time>2017-11-03T14:32:52Z</time>
      </trkpt>
      <trkpt lat="59.849574" lon="17.5530531">
        <ele>26.5736</ele>
        <time>2017-11-03T14:32:56Z</time>
      </trkpt>
      <trkpt lat="59.8494315" lon="17.5527215">
        <ele>26.0929</ele>
        <time>2017-11-03T14:33:01Z</time>
      </trkpt>
      <trkpt lat="59.8494445" lon="17.5525573">
        <ele>26.5736</ele>
        <time>2017-11-03T14:33:03Z</time>
      </trkpt>
      <trkpt lat="59.8495496" lon="17.5518205">
        <ele>27.0543</ele>
        <time>2017-11-03T14:33:12Z</time>
      </trkpt>
      <trkpt lat="59.8496159" lon="17.5512958">
        <ele>28.0155</ele>
        <time>2017-11-03T14:33:19Z</time>
      </trkpt>
      <trkpt lat="59.8496499" lon="17.5509577">
        <ele>27.5349</ele>
        <time>2017-11-03T14:33:24Z</time>
      </trkpt>
      <trkpt lat="59.8495518" lon="17.5508018">
        <ele>28.0155</ele>
        <time>2017-11-03T14:33:28Z</time>
      </trkpt>
      <trkpt lat="59.8493268" lon="17.5506244">
        <ele>28.0155</ele>
        <time>2017-11-03T14:33:34Z</time>
      </trkpt>
      <trkpt lat="59.8489806" lon="17.5504307">
        <ele>27.5349</ele>
        <time>2017-11-03T14:33:42Z</time>
      </trkpt>
      <trkpt lat="59.8486994" lon="17.5502369">
        <ele>28.0155</ele>
        <time>2017-11-03T14:33:49Z</time>
      </trkpt>
      <trkpt lat="59.8486643" lon="17.5502163">
        <ele>28.0155</ele>
        <time>2017-11-03T14:33:50Z</time>
      </trkpt>
      <trkpt lat="59.8485113" lon="17.5501325">
        <ele>28.4962</ele>
        <time>2017-11-03T14:33:55Z</time>
      </trkpt>
      <trkpt lat="59.8484649" lon="17.5499692">
        <ele>28.0155</ele>
        <time>2017-11-03T14:33:59Z</time>
      </trkpt>
      <trkpt lat="59.8484778" lon="17.5498533">
        <ele>28.0155</ele>
        <time>2017-11-03T14:34:01Z</time>
      </trkpt>
      <trkpt lat="59.8485351" lon="17.549404">
        <ele>28.0155</ele>
        <time>2017-11-03T14:34:08Z</time>
      </trkpt>
      <trkpt lat="59.8485427" lon="17.5490804">
        <ele>28.0155</ele>
        <time>2017-11-03T14:34:13Z</time>
      </trkpt>
      <trkpt lat="59.8486347" lon="17.5489109">
        <ele>28.4962</ele>
        <time>2017-11-03T14:34:18Z</time>
      </trkpt>
      <trkpt lat="59.8486083" lon="17.5488504">
        <ele>28.0155</ele>
        <time>2017-11-03T14:34:21Z</time>
      </trkpt>
      <trkpt lat="59.8485955" lon="17.5488728">
        <ele>28.0155</ele>
        <time>2017-11-03T14:34:22Z</time>
      </trkpt>
      <trkpt lat="59.8485375" lon="17.5492006">
        <ele>28.0155</ele>
        <time>2017-11-03T14:34:29Z</time>
      </trkpt>
      <trkpt lat="59.8485125" lon="17.5496435">
        <ele>28.0155</ele>
        <time>2017-11-03T14:34:37Z</time>
      </trkpt>
      <trkpt lat="59.848469" lon="17.549958">
        <ele>27.5349</ele>
        <time>2017-11-03T14:34:43Z</time>
      </trkpt>
      <trkpt lat="59.848451" lon="17.5500992">
        <ele>28.0155</ele>
        <time>2017-11-03T14:34:46Z</time>
      </trkpt>
      <trkpt lat="59.8484975" lon="17.5501756">
        <ele>28.0155</ele>
        <time>2017-11-03T14:34:50Z</time>
      </trkpt>
      <trkpt lat="59.8486831" lon="17.5502719">
        <ele>27.5349</ele>
        <time>2017-11-03T14:34:57Z</time>
      </trkpt>
      <trkpt lat="59.8489056" lon="17.550474">
        <ele>27.5349</ele>
        <time>2017-11-03T14:35:04Z</time>
      </trkpt>
      <trkpt lat="59.8489286" lon="17.5507199">
        <ele>27.5349</ele>
        <time>2017-11-03T14:35:08Z</time>
      </trkpt>
      <trkpt lat="59.8489233" lon="17.550955">
        <ele>27.5349</ele>
        <time>2017-11-03T14:35:12Z</time>
      </trkpt>
      <trkpt lat="59.8488197" lon="17.5509779">
        <ele>28.0155</ele>
        <time>2017-11-03T14:35:16Z</time>
      </trkpt>
      <trkpt lat="59.8486875" lon="17.5509909">
        <ele>28.0155</ele>
        <time>2017-11-03T14:35:21Z</time>
      </trkpt>
      <trkpt lat="59.8485152" lon="17.5511293">
        <ele>28.0155</ele>
        <time>2017-11-03T14:35:28Z</time>
      </trkpt>
      <trkpt lat="59.8483753" lon="17.5512513">
        <ele>28.9769</ele>
        <time>2017-11-03T14:35:33Z</time>
      </trkpt>
      <trkpt lat="59.8482774" lon="17.5511721">
        <ele>29.4575</ele>
        <time>2017-11-03T14:35:37Z</time>
      </trkpt>
      <trkpt lat="59.8482526" lon="17.5510604">
        <ele>29.4575</ele>
        <time>2017-11-03T14:35:39Z</time>
      </trkpt>
      <trkpt lat="59.8481606" lon="17.5506741">
        <ele>30.4188</ele>
        <time>2017-11-03T14:35:46Z</time>
      </trkpt>
      <trkpt lat="59.8480473" lon="17.5507451">
        <ele>31.3801</ele>
        <time>2017-11-03T14:35:51Z</time>
      </trkpt>
      <trkpt lat="59.8478276" lon="17.5509981">
        <ele>31.3801</ele>
        <time>2017-11-03T14:35:58Z</time>
      </trkpt>
      <trkpt lat="59.8476419" lon="17.5512602">
        <ele>31.8607</ele>
        <time>2017-11-03T14:36:04Z</time>
      </trkpt>
      <trkpt lat="59.8474763" lon="17.55154">
        <ele>31.3801</ele>
        <time>2017-11-03T14:36:11Z</time>
      </trkpt>
      <trkpt lat="59.8474577" lon="17.5515708">
        <ele>31.3801</ele>
        <time>2017-11-03T14:36:12Z</time>
      </trkpt>
      <trkpt lat="59.8473765" lon="17.5515261">
        <ele>31.3801</ele>
        <time>2017-11-03T14:36:16Z</time>
      </trkpt>
      <trkpt lat="59.8473651" lon="17.5514711">
        <ele>31.3801</ele>
        <time>2017-11-03T14:36:17Z</time>
      </trkpt>
      <trkpt lat="59.8473268" lon="17.5509758">
        <ele>30.4188</ele>
        <time>2017-11-03T14:36:24Z</time>
      </trkpt>
      <trkpt lat="59.8473492" lon="17.5507888">
        <ele>29.9381</ele>
        <time>2017-11-03T14:36:27Z</time>
      </trkpt>
      <trkpt lat="59.8472565" lon="17.5506412">
        <ele>29.4575</ele>
        <time>2017-11-03T14:36:32Z</time>
      </trkpt>
      <trkpt lat="59.8470708" lon="17.5504572">
        <ele>28.0155</ele>
        <time>2017-11-03T14:36:39Z</time>
      </trkpt>
      <trkpt lat="59.8469068" lon="17.5503375">
        <ele>27.5349</ele>
        <time>2017-11-03T14:36:46Z</time>
      </trkpt>
      <trkpt lat="59.8467703" lon="17.550218">
        <ele>28.0155</ele>
        <time>2017-11-03T14:36:52Z</time>
      </trkpt>
      <trkpt lat="59.8465601" lon="17.5500627">
        <ele>28.0155</ele>
        <time>2017-11-03T14:37:00Z</time>
      </trkpt>
      <trkpt lat="59.8463985" lon="17.550009">
        <ele>28.0155</ele>
        <time>2017-11-03T14:37:06Z</time>
      </trkpt>
      <trkpt lat="59.8463005" lon="17.549876">
        <ele>27.5349</ele>
        <time>2017-11-03T14:37:11Z</time>
      </trkpt>
      <trkpt lat="59.8462664" lon="17.5497998">
        <ele>27.5349</ele>
        <time>2017-11-03T14:37:13Z</time>
      </trkpt>
      <trkpt lat="59.8462997" lon="17.5496239">
        <ele>26.5736</ele>
        <time>2017-11-03T14:37:17Z</time>
      </trkpt>
      <trkpt lat="59.8464564" lon="17.5492902">
        <ele>26.0929</ele>
        <time>2017-11-03T14:37:22Z</time>
      </trkpt>
      <trkpt lat="59.8465346" lon="17.5491457">
        <ele>26.5736</ele>
        <time>2017-11-03T14:37:24Z</time>
      </trkpt>
      <trkpt lat="59.8466118" lon="17.5489912">
        <ele>26.0929</ele>
        <time>2017-11-03T14:37:26Z</time>
      </trkpt>
      <trkpt lat="59.8468573" lon="17.5482418">
        <ele>26.0929</ele>
        <time>2017-11-03T14:37:34Z</time>
      </trkpt>
      <trkpt lat="59.8471285" lon="17.5473441">
        <ele>27.0543</ele>
        <time>2017-11-03T14:37:43Z</time>
      </trkpt>
      <trkpt lat="59.8472811" lon="17.5466275">
        <ele>27.0543</ele>
        <time>2017-11-03T14:37:50Z</time>
      </trkpt>
      <trkpt lat="59.8474693" lon="17.54559">
        <ele>26.0929</ele>
        <time>2017-11-03T14:37:59Z</time>
      </trkpt>
      <trkpt lat="59.8475895" lon="17.5447632">
        <ele>26.0929</ele>
        <time>2017-11-03T14:38:06Z</time>
      </trkpt>
      <trkpt lat="59.8477412" lon="17.543787">
        <ele>25.1317</ele>
        <time>2017-11-03T14:38:14Z</time>
      </trkpt>
      <trkpt lat="59.847933" lon="17.5427016">
        <ele>23.6896</ele>
        <time>2017-11-03T14:38:23Z</time>
      </trkpt>
      <trkpt lat="59.848111" lon="17.541528">
        <ele>23.209</ele>
        <time>2017-11-03T14:38:33Z</time>
      </trkpt>
      <trkpt lat="59.8482546" lon="17.5404457">
        <ele>23.209</ele>
        <time>2017-11-03T14:38:42Z</time>
      </trkpt>
      <trkpt lat="59.8483126" lon="17.540107">
        <ele>23.209</ele>
        <time>2017-11-03T14:38:45Z</time>
      </trkpt>
      <trkpt lat="59.8484079" lon="17.5392091">
        <ele>22.7283</ele>
        <time>2017-11-03T14:38:53Z</time>
      </trkpt>
      <trkpt lat="59.848567" lon="17.5380547">
        <ele>22.7283</ele>
        <time>2017-11-03T14:39:03Z</time>
      </trkpt>
      <trkpt lat="59.848655" lon="17.537205">
        <ele>22.7283</ele>
        <time>2017-11-03T14:39:11Z</time>
      </trkpt>
      <trkpt lat="59.8487415" lon="17.5362979">
        <ele>23.209</ele>
        <time>2017-11-03T14:39:20Z</time>
      </trkpt>
      <trkpt lat="59.8487859" lon="17.5355568">
        <ele>22.7283</ele>
        <time>2017-11-03T14:39:27Z</time>
      </trkpt>
      <trkpt lat="59.8488333" lon="17.5351059">
        <ele>22.7283</ele>
        <time>2017-11-03T14:39:31Z</time>
      </trkpt>
      <trkpt lat="59.8488493" lon="17.5347598">
        <ele>22.7283</ele>
        <time>2017-11-03T14:39:34Z</time>
      </trkpt>
      <trkpt lat="59.8489226" lon="17.5337836">
        <ele>23.209</ele>
        <time>2017-11-03T14:39:43Z</time>
      </trkpt>
      <trkpt lat="59.8489947" lon="17.5328051">
        <ele>23.6896</ele>
        <time>2017-11-03T14:39:52Z</time>
      </trkpt>
      <trkpt lat="59.848999" lon="17.532594">
        <ele>23.6896</ele>
        <time>2017-11-03T14:39:54Z</time>
      </trkpt>
      <trkpt lat="59.8489789" lon="17.5322882">
        <ele>24.1703</ele>
        <time>2017-11-03T14:39:57Z</time>
      </trkpt>
      <trkpt lat="59.8489905" lon="17.5318582">
        <ele>23.6896</ele>
        <time>2017-11-03T14:40:01Z</time>
      </trkpt>
      <trkpt lat="59.8490332" lon="17.5308507">
        <ele>25.6123</ele>
        <time>2017-11-03T14:40:10Z</time>
      </trkpt>
      <trkpt lat="59.8490285" lon="17.5299815">
        <ele>26.0929</ele>
        <time>2017-11-03T14:40:18Z</time>
      </trkpt>
      <trkpt lat="59.8490254" lon="17.5293475">
        <ele>26.0929</ele>
        <time>2017-11-03T14:40:24Z</time>
      </trkpt>
      <trkpt lat="59.849039" lon="17.5288442">
        <ele>25.1317</ele>
        <time>2017-11-03T14:40:29Z</time>
      </trkpt>
      <trkpt lat="59.8490689" lon="17.5286341">
        <ele>25.1317</ele>
        <time>2017-11-03T14:40:31Z</time>
      </trkpt>
      <trkpt lat="59.8490923" lon="17.5279673">
        <ele>24.651</ele>
        <time>2017-11-03T14:40:37Z</time>
      </trkpt>
      <trkpt lat="59.8490937" lon="17.5267666">
        <ele>23.209</ele>
        <time>2017-11-03T14:40:47Z</time>
      </trkpt>
      <trkpt lat="59.8490897" lon="17.5256633">
        <ele>22.7283</ele>
        <time>2017-11-03T14:40:56Z</time>
      </trkpt>
      <trkpt lat="59.8490959" lon="17.5244729">
        <ele>23.209</ele>
        <time>2017-11-03T14:41:06Z</time>
      </trkpt>
      <trkpt lat="59.8490962" lon="17.5236705">
        <ele>23.209</ele>
        <time>2017-11-03T14:41:13Z</time>
      </trkpt>
      <trkpt lat="59.8491103" lon="17.5227915">
        <ele>23.6896</ele>
        <time>2017-11-03T14:41:21Z</time>
      </trkpt>
      <trkpt lat="59.8490927" lon="17.5221185">
        <ele>23.6896</ele>
        <time>2017-11-03T14:41:27Z</time>
      </trkpt>
      <trkpt lat="59.8490995" lon="17.5218917">
        <ele>24.1703</ele>
        <time>2017-11-03T14:41:29Z</time>
      </trkpt>
      <trkpt lat="59.8490974" lon="17.5213413">
        <ele>24.651</ele>
        <time>2017-11-03T14:41:34Z</time>
      </trkpt>
      <trkpt lat="59.8491149" lon="17.520488">
        <ele>25.1317</ele>
        <time>2017-11-03T14:41:42Z</time>
      </trkpt>
      <trkpt lat="59.8491332" lon="17.5195865">
        <ele>25.6123</ele>
        <time>2017-11-03T14:41:51Z</time>
      </trkpt>
      <trkpt lat="59.8491669" lon="17.5188618">
        <ele>25.1317</ele>
        <time>2017-11-03T14:41:59Z</time>
      </trkpt>
      <trkpt lat="59.8491884" lon="17.5185418">
        <ele>25.6123</ele>
        <time>2017-11-03T14:42:03Z</time>
      </trkpt>
      <trkpt lat="59.849145" lon="17.5183676">
        <ele>26.0929</ele>
        <time>2017-11-03T14:42:08Z</time>
      </trkpt>
      <trkpt lat="59.849128" lon="17.5183527">
        <ele>26.5736</ele>
        <time>2017-11-03T14:42:12Z</time>
      </trkpt>
      <trkpt lat="59.8491031" lon="17.518294">
        <ele>27.0543</ele>
        <time>2017-11-03T14:42:27Z</time>
      </trkpt>
      <trkpt lat="59.8490621" lon="17.5180796">
        <ele>27.5349</ele>
        <time>2017-11-03T14:42:30Z</time>
      </trkpt>
      <trkpt lat="59.8490174" lon="17.517615">
        <ele>28.0155</ele>
        <time>2017-11-03T14:42:36Z</time>
      </trkpt>
      <trkpt lat="59.8489015" lon="17.5175398">
        <ele>28.0155</ele>
        <time>2017-11-03T14:42:39Z</time>
      </trkpt>
      <trkpt lat="59.8487569" lon="17.5175558">
        <ele>27.0543</ele>
        <time>2017-11-03T14:42:42Z</time>
      </trkpt>
      <trkpt lat="59.8483455" lon="17.517677">
        <ele>25.6123</ele>
        <time>2017-11-03T14:42:49Z</time>
      </trkpt>
      <trkpt lat="59.8481375" lon="17.517519">
        <ele>26.0929</ele>
        <time>2017-11-03T14:42:53Z</time>
      </trkpt>
      <trkpt lat="59.8480961" lon="17.5172203">
        <ele>26.5736</ele>
        <time>2017-11-03T14:42:56Z</time>
      </trkpt>
      <trkpt lat="59.8480907" lon="17.5171253">
        <ele>26.5736</ele>
        <time>2017-11-03T14:42:57Z</time>
      </trkpt>
      <trkpt lat="59.848052" lon="17.5163768">
        <ele>27.5349</ele>
        <time>2017-11-03T14:43:05Z</time>
      </trkpt>
      <trkpt lat="59.8479847" lon="17.5155938">
        <ele>28.0155</ele>
        <time>2017-11-03T14:43:13Z</time>
      </trkpt>
      <trkpt lat="59.8479463" lon="17.5147965">
        <ele>27.5349</ele>
        <time>2017-11-03T14:43:21Z</time>
      </trkpt>
      <trkpt lat="59.8479039" lon="17.5140137">
        <ele>26.5736</ele>
        <time>2017-11-03T14:43:28Z</time>
      </trkpt>
      <trkpt lat="59.8477587" lon="17.5132699">
        <ele>24.651</ele>
        <time>2017-11-03T14:43:34Z</time>
      </trkpt>
      <trkpt lat="59.8475926" lon="17.5122909">
        <ele>23.6896</ele>
        <time>2017-11-03T14:43:42Z</time>
      </trkpt>
      <trkpt lat="59.8475708" lon="17.5120487">
        <ele>22.7283</ele>
        <time>2017-11-03T14:43:44Z</time>
      </trkpt>
      <trkpt lat="59.8474562" lon="17.5115547">
        <ele>20.325</ele>
        <time>2017-11-03T14:43:48Z</time>
      </trkpt>
      <trkpt lat="59.8470459" lon="17.5104524">
        <ele>18.8831</ele>
        <time>2017-11-03T14:43:58Z</time>
      </trkpt>
      <trkpt lat="59.8468131" lon="17.5100138">
        <ele>18.4023</ele>
        <time>2017-11-03T14:44:03Z</time>
      </trkpt>
      <trkpt lat="59.8465346" lon="17.509808">
        <ele>17.9218</ele>
        <time>2017-11-03T14:44:08Z</time>
      </trkpt>
      <trkpt lat="59.8461507" lon="17.5097676">
        <ele>18.4023</ele>
        <time>2017-11-03T14:44:15Z</time>
      </trkpt>
      <trkpt lat="59.8456987" lon="17.5097643">
        <ele>19.3638</ele>
        <time>2017-11-03T14:44:24Z</time>
      </trkpt>
      <trkpt lat="59.8456478" lon="17.5097719">
        <ele>19.3638</ele>
        <time>2017-11-03T14:44:25Z</time>
      </trkpt>
      <trkpt lat="59.8454281" lon="17.5099546">
        <ele>20.8057</ele>
        <time>2017-11-03T14:44:30Z</time>
      </trkpt>
      <trkpt lat="59.8452651" lon="17.51031">
        <ele>20.8057</ele>
        <time>2017-11-03T14:44:35Z</time>
      </trkpt>
      <trkpt lat="59.8450933" lon="17.5105421">
        <ele>20.8057</ele>
        <time>2017-11-03T14:44:39Z</time>
      </trkpt>
      <trkpt lat="59.8449949" lon="17.5106185">
        <ele>21.2864</ele>
        <time>2017-11-03T14:44:41Z</time>
      </trkpt>
      <trkpt lat="59.8446818" lon="17.5106214">
        <ele>20.8057</ele>
        <time>2017-11-03T14:44:47Z</time>
      </trkpt>
      <trkpt lat="59.8445506" lon="17.5104814">
        <ele>20.8057</ele>
        <time>2017-11-03T14:44:50Z</time>
      </trkpt>
      <trkpt lat="59.8442907" lon="17.5100423">
        <ele>22.2476</ele>
        <time>2017-11-03T14:44:58Z</time>
      </trkpt>
      <trkpt lat="59.8442092" lon="17.5098905">
        <ele>22.2476</ele>
        <time>2017-11-03T14:45:01Z</time>
      </trkpt>
      <trkpt lat="59.8440965" lon="17.509562">
        <ele>24.651</ele>
        <time>2017-11-03T14:45:08Z</time>
      </trkpt>
      <trkpt lat="59.8440451" lon="17.5092693">
        <ele>26.5736</ele>
        <time>2017-11-03T14:45:14Z</time>
      </trkpt>
      <trkpt lat="59.8439659" lon="17.508974">
        <ele>26.5736</ele>
        <time>2017-11-03T14:45:19Z</time>
      </trkpt>
      <trkpt lat="59.8437822" lon="17.5087026">
        <ele>26.5736</ele>
        <time>2017-11-03T14:45:25Z</time>
      </trkpt>
      <trkpt lat="59.8434858" lon="17.5084225">
        <ele>27.0543</ele>
        <time>2017-11-03T14:45:33Z</time>
      </trkpt>
      <trkpt lat="59.8432747" lon="17.5081271">
        <ele>28.0155</ele>
        <time>2017-11-03T14:45:40Z</time>
      </trkpt>
      <trkpt lat="59.8430123" lon="17.5078734">
        <ele>27.5349</ele>
        <time>2017-11-03T14:45:47Z</time>
      </trkpt>
      <trkpt lat="59.8427272" lon="17.5078738">
        <ele>27.5349</ele>
        <time>2017-11-03T14:45:53Z</time>
      </trkpt>
      <trkpt lat="59.8425896" lon="17.5080079">
        <ele>27.0543</ele>
        <time>2017-11-03T14:45:56Z</time>
      </trkpt>
      <trkpt lat="59.8422822" lon="17.5084206">
        <ele>26.5736</ele>
        <time>2017-11-03T14:46:03Z</time>
      </trkpt>
      <trkpt lat="59.8420157" lon="17.5087325">
        <ele>27.5349</ele>
        <time>2017-11-03T14:46:09Z</time>
      </trkpt>
      <trkpt lat="59.8417384" lon="17.5089859">
        <ele>28.0155</ele>
        <time>2017-11-03T14:46:16Z</time>
      </trkpt>
      <trkpt lat="59.8413742" lon="17.5092106">
        <ele>29.4575</ele>
        <time>2017-11-03T14:46:25Z</time>
      </trkpt>
      <trkpt lat="59.8410813" lon="17.509278">
        <ele>28.4962</ele>
        <time>2017-11-03T14:46:31Z</time>
      </trkpt>
      <trkpt lat="59.8405702" lon="17.5093455">
        <ele>28.9769</ele>
        <time>2017-11-03T14:46:41Z</time>
      </trkpt>
      <trkpt lat="59.8400678" lon="17.5094258">
        <ele>29.4575</ele>
        <time>2017-11-03T14:46:51Z</time>
      </trkpt>
      <trkpt lat="59.8396241" lon="17.5094975">
        <ele>30.4188</ele>
        <time>2017-11-03T14:47:00Z</time>
      </trkpt>
      <trkpt lat="59.8392987" lon="17.5095431">
        <ele>31.8607</ele>
        <time>2017-11-03T14:47:08Z</time>
      </trkpt>
      <trkpt lat="59.8390712" lon="17.509598">
        <ele>32.8223</ele>
        <time>2017-11-03T14:47:15Z</time>
      </trkpt>
      <trkpt lat="59.8388403" lon="17.5097025">
        <ele>33.3029</ele>
        <time>2017-11-03T14:47:22Z</time>
      </trkpt>
      <trkpt lat="59.8386399" lon="17.5098853">
        <ele>33.3029</ele>
        <time>2017-11-03T14:47:28Z</time>
      </trkpt>
      <trkpt lat="59.8383544" lon="17.5102676">
        <ele>34.2642</ele>
        <time>2017-11-03T14:47:37Z</time>
      </trkpt>
      <trkpt lat="59.8381477" lon="17.510618">
        <ele>35.7061</ele>
        <time>2017-11-03T14:47:45Z</time>
      </trkpt>
      <trkpt lat="59.8379088" lon="17.5109438">
        <ele>37.6287</ele>
        <time>2017-11-03T14:47:53Z</time>
      </trkpt>
      <trkpt lat="59.8376357" lon="17.5111757">
        <ele>37.6287</ele>
        <time>2017-11-03T14:48:00Z</time>
      </trkpt>
      <trkpt lat="59.8373439" lon="17.5114615">
        <ele>37.1481</ele>
        <time>2017-11-03T14:48:06Z</time>
      </trkpt>
      <trkpt lat="59.8372381" lon="17.5115816">
        <ele>37.1481</ele>
        <time>2017-11-03T14:48:08Z</time>
      </trkpt>
      <trkpt lat="59.8369457" lon="17.5117258">
        <ele>36.6675</ele>
        <time>2017-11-03T14:48:13Z</time>
      </trkpt>
      <trkpt lat="59.8368827" lon="17.5117193">
        <ele>36.6675</ele>
        <time>2017-11-03T14:48:14Z</time>
      </trkpt>
      <trkpt lat="59.8367582" lon="17.5116931">
        <ele>36.6675</ele>
        <time>2017-11-03T14:48:16Z</time>
      </trkpt>
      <trkpt lat="59.8364672" lon="17.51146">
        <ele>37.1481</ele>
        <time>2017-11-03T14:48:21Z</time>
      </trkpt>
      <trkpt lat="59.8364246" lon="17.511387">
        <ele>37.1481</ele>
        <time>2017-11-03T14:48:22Z</time>
      </trkpt>
      <trkpt lat="59.8361575" lon="17.5107995">
        <ele>36.6675</ele>
        <time>2017-11-03T14:48:29Z</time>
      </trkpt>
      <trkpt lat="59.8358129" lon="17.5101131">
        <ele>34.2642</ele>
        <time>2017-11-03T14:48:37Z</time>
      </trkpt>
      <trkpt lat="59.8354193" lon="17.5094169">
        <ele>30.4188</ele>
        <time>2017-11-03T14:48:45Z</time>
      </trkpt>
      <trkpt lat="59.8353133" lon="17.5092407">
        <ele>28.9769</ele>
        <time>2017-11-03T14:48:47Z</time>
      </trkpt>
      <trkpt lat="59.8350505" lon="17.5090137">
        <ele>27.5349</ele>
        <time>2017-11-03T14:48:51Z</time>
      </trkpt>
      <trkpt lat="59.8344137" lon="17.5088087">
        <ele>25.1317</ele>
        <time>2017-11-03T14:49:00Z</time>
      </trkpt>
      <trkpt lat="59.8339503" lon="17.5086703">
        <ele>24.651</ele>
        <time>2017-11-03T14:49:07Z</time>
      </trkpt>
      <trkpt lat="59.8338869" lon="17.5086513">
        <ele>25.1317</ele>
        <time>2017-11-03T14:49:08Z</time>
      </trkpt>
      <trkpt lat="59.8334991" lon="17.5086606">
        <ele>27.5349</ele>
        <time>2017-11-03T14:49:14Z</time>
      </trkpt>
      <trkpt lat="59.8331489" lon="17.5088372">
        <ele>28.0155</ele>
        <time>2017-11-03T14:49:20Z</time>
      </trkpt>
      <trkpt lat="59.8327983" lon="17.5091733">
        <ele>28.0155</ele>
        <time>2017-11-03T14:49:27Z</time>
      </trkpt>
      <trkpt lat="59.8327353" lon="17.5092558">
        <ele>28.0155</ele>
        <time>2017-11-03T14:49:29Z</time>
      </trkpt>
      <trkpt lat="59.8327034" lon="17.5093825">
        <ele>27.5349</ele>
        <time>2017-11-03T14:49:33Z</time>
      </trkpt>
      <trkpt lat="59.8327475" lon="17.5093523">
        <ele>28.0155</ele>
        <time>2017-11-03T14:49:35Z</time>
      </trkpt>
      <trkpt lat="59.832894" lon="17.5091745">
        <ele>28.9769</ele>
        <time>2017-11-03T14:49:41Z</time>
      </trkpt>
      <trkpt lat="59.8330713" lon="17.5089575">
        <ele>28.9769</ele>
        <time>2017-11-03T14:49:46Z</time>
      </trkpt>
      <trkpt lat="59.8331953" lon="17.5088438">
        <ele>28.9769</ele>
        <time>2017-11-03T14:49:49Z</time>
      </trkpt>
      <trkpt lat="59.8332955" lon="17.508585">
        <ele>29.4575</ele>
        <time>2017-11-03T14:49:53Z</time>
      </trkpt>
      <trkpt lat="59.8332427" lon="17.5082902">
        <ele>29.4575</ele>
        <time>2017-11-03T14:49:57Z</time>
      </trkpt>
      <trkpt lat="59.8332238" lon="17.5082182">
        <ele>28.9769</ele>
        <time>2017-11-03T14:49:58Z</time>
      </trkpt>
      <trkpt lat="59.8331442" lon="17.507847">
        <ele>28.9769</ele>
        <time>2017-11-03T14:50:03Z</time>
      </trkpt>
      <trkpt lat="59.8330365" lon="17.5074816">
        <ele>28.0155</ele>
        <time>2017-11-03T14:50:08Z</time>
      </trkpt>
      <trkpt lat="59.8329401" lon="17.5071729">
        <ele>27.0543</ele>
        <time>2017-11-03T14:50:12Z</time>
      </trkpt>
      <trkpt lat="59.8326721" lon="17.506487">
        <ele>26.0929</ele>
        <time>2017-11-03T14:50:20Z</time>
      </trkpt>
      <trkpt lat="59.8323851" lon="17.5058956">
        <ele>25.6123</ele>
        <time>2017-11-03T14:50:27Z</time>
      </trkpt>
      <trkpt lat="59.832133" lon="17.5054426">
        <ele>24.651</ele>
        <time>2017-11-03T14:50:33Z</time>
      </trkpt>
      <trkpt lat="59.8317393" lon="17.5047539">
        <ele>24.1703</ele>
        <time>2017-11-03T14:50:42Z</time>
      </trkpt>
      <trkpt lat="59.8313764" lon="17.5041038">
        <ele>25.1317</ele>
        <time>2017-11-03T14:50:50Z</time>
      </trkpt>
      <trkpt lat="59.8310536" lon="17.5035272">
        <ele>26.0929</ele>
        <time>2017-11-03T14:50:58Z</time>
      </trkpt>
      <trkpt lat="59.8307724" lon="17.5030224">
        <ele>28.0155</ele>
        <time>2017-11-03T14:51:06Z</time>
      </trkpt>
      <trkpt lat="59.8304825" lon="17.5025058">
        <ele>28.9769</ele>
        <time>2017-11-03T14:51:15Z</time>
      </trkpt>
      <trkpt lat="59.8302145" lon="17.5020286">
        <ele>29.9381</ele>
        <time>2017-11-03T14:51:23Z</time>
      </trkpt>
      <trkpt lat="59.8299341" lon="17.501536">
        <ele>31.8607</ele>
        <time>2017-11-03T14:51:32Z</time>
      </trkpt>
      <trkpt lat="59.8298181" lon="17.5013207">
        <ele>32.8223</ele>
        <time>2017-11-03T14:51:36Z</time>
      </trkpt>
      <trkpt lat="59.8295283" lon="17.500819">
        <ele>33.7834</ele>
        <time>2017-11-03T14:51:46Z</time>
      </trkpt>
      <trkpt lat="59.8292823" lon="17.5003896">
        <ele>33.3029</ele>
        <time>2017-11-03T14:51:54Z</time>
      </trkpt>
      <trkpt lat="59.8289709" lon="17.4998634">
        <ele>34.2642</ele>
        <time>2017-11-03T14:52:03Z</time>
      </trkpt>
      <trkpt lat="59.8287219" lon="17.4994536">
        <ele>34.2642</ele>
        <time>2017-11-03T14:52:11Z</time>
      </trkpt>
      <trkpt lat="59.8284964" lon="17.4990664">
        <ele>33.3029</ele>
        <time>2017-11-03T14:52:19Z</time>
      </trkpt>
      <trkpt lat="59.8282336" lon="17.4986012">
        <ele>32.3416</ele>
        <time>2017-11-03T14:52:28Z</time>
      </trkpt>
      <trkpt lat="59.8279615" lon="17.4981492">
        <ele>33.3029</ele>
        <time>2017-11-03T14:52:37Z</time>
      </trkpt>
      <trkpt lat="59.8278222" lon="17.4978989">
        <ele>33.3029</ele>
        <time>2017-11-03T14:52:42Z</time>
      </trkpt>
      <trkpt lat="59.8276849" lon="17.4976524">
        <ele>33.7834</ele>
        <time>2017-11-03T14:52:47Z</time>
      </trkpt>
      <trkpt lat="59.8274491" lon="17.4973124">
        <ele>34.2642</ele>
        <time>2017-11-03T14:52:55Z</time>
      </trkpt>
      <trkpt lat="59.8272347" lon="17.4970806">
        <ele>35.2255</ele>
        <time>2017-11-03T14:53:02Z</time>
      </trkpt>
      <trkpt lat="59.8269743" lon="17.4968784">
        <ele>35.2255</ele>
        <time>2017-11-03T14:53:10Z</time>
      </trkpt>
      <trkpt lat="59.8267692" lon="17.4967147">
        <ele>35.2255</ele>
        <time>2017-11-03T14:53:16Z</time>
      </trkpt>
      <trkpt lat="59.8265495" lon="17.4966006">
        <ele>35.7061</ele>
        <time>2017-11-03T14:53:22Z</time>
      </trkpt>
      <trkpt lat="59.8262811" lon="17.4965059">
        <ele>36.6675</ele>
        <time>2017-11-03T14:53:29Z</time>
      </trkpt>
      <trkpt lat="59.8261133" lon="17.4965004">
        <ele>36.6675</ele>
        <time>2017-11-03T14:53:33Z</time>
      </trkpt>
      <trkpt lat="59.8259743" lon="17.4964756">
        <ele>36.6675</ele>
        <time>2017-11-03T14:53:36Z</time>
      </trkpt>
      <trkpt lat="59.8257894" lon="17.4964392">
        <ele>36.1868</ele>
        <time>2017-11-03T14:53:40Z</time>
      </trkpt>
      <trkpt lat="59.8256863" lon="17.4964372">
        <ele>35.2255</ele>
        <time>2017-11-03T14:53:42Z</time>
      </trkpt>
      <trkpt lat="59.8255263" lon="17.4964014">
        <ele>34.2642</ele>
        <time>2017-11-03T14:53:45Z</time>
      </trkpt>
      <trkpt lat="59.8253254" lon="17.4963764">
        <ele>32.8223</ele>
        <time>2017-11-03T14:53:50Z</time>
      </trkpt>
      <trkpt lat="59.8252696" lon="17.4963356">
        <ele>32.3416</ele>
        <time>2017-11-03T14:53:55Z</time>
      </trkpt>
      <trkpt lat="59.8252693" lon="17.4962373">
        <ele>31.3801</ele>
        <time>2017-11-03T14:54:02Z</time>
      </trkpt>
      <trkpt lat="59.8251745" lon="17.4962854">
        <ele>32.3416</ele>
        <time>2017-11-03T14:54:08Z</time>
      </trkpt>
      <trkpt lat="59.8251406" lon="17.4963235">
        <ele>32.8223</ele>
        <time>2017-11-03T14:54:13Z</time>
      </trkpt>
      <trkpt lat="59.8251121" lon="17.4963339">
        <ele>32.3416</ele>
        <time>2017-11-03T14:54:20Z</time>
      </trkpt>
      <trkpt lat="59.824994" lon="17.4963145">
        <ele>32.3416</ele>
        <time>2017-11-03T14:54:23Z</time>
      </trkpt>
      <trkpt lat="59.8247139" lon="17.4962854">
        <ele>31.3801</ele>
        <time>2017-11-03T14:54:29Z</time>
      </trkpt>
      <trkpt lat="59.8245184" lon="17.4962081">
        <ele>31.3801</ele>
        <time>2017-11-03T14:54:33Z</time>
      </trkpt>
      <trkpt lat="59.8242671" lon="17.4961927">
        <ele>30.8995</ele>
        <time>2017-11-03T14:54:38Z</time>
      </trkpt>
      <trkpt lat="59.8239749" lon="17.4961756">
        <ele>30.8995</ele>
        <time>2017-11-03T14:54:44Z</time>
      </trkpt>
      <trkpt lat="59.8238056" lon="17.4961429">
        <ele>30.4188</ele>
        <time>2017-11-03T14:54:48Z</time>
      </trkpt>
      <trkpt lat="59.8235543" lon="17.4960652">
        <ele>30.4188</ele>
        <time>2017-11-03T14:54:54Z</time>
      </trkpt>
      <trkpt lat="59.8233414" lon="17.4960445">
        <ele>30.8995</ele>
        <time>2017-11-03T14:54:59Z</time>
      </trkpt>
      <trkpt lat="59.8232063" lon="17.496031">
        <ele>30.8995</ele>
        <time>2017-11-03T14:55:02Z</time>
      </trkpt>
      <trkpt lat="59.8228197" lon="17.4959212">
        <ele>30.4188</ele>
        <time>2017-11-03T14:55:10Z</time>
      </trkpt>
      <trkpt lat="59.8227215" lon="17.4958938">
        <ele>30.8995</ele>
        <time>2017-11-03T14:55:12Z</time>
      </trkpt>
      <trkpt lat="59.8223774" lon="17.4957227">
        <ele>30.8995</ele>
        <time>2017-11-03T14:55:19Z</time>
      </trkpt>
      <trkpt lat="59.8222095" lon="17.4958524">
        <ele>30.8995</ele>
        <time>2017-11-03T14:55:23Z</time>
      </trkpt>
      <trkpt lat="59.8221836" lon="17.4959065">
        <ele>30.8995</ele>
        <time>2017-11-03T14:55:24Z</time>
      </trkpt>
      <trkpt lat="59.8220123" lon="17.4960456">
        <ele>30.8995</ele>
        <time>2017-11-03T14:55:30Z</time>
      </trkpt>
      <trkpt lat="59.8219768" lon="17.4960103">
        <ele>30.8995</ele>
        <time>2017-11-03T14:55:31Z</time>
      </trkpt>
      <trkpt lat="59.821608" lon="17.4955491">
        <ele>30.8995</ele>
        <time>2017-11-03T14:55:40Z</time>
      </trkpt>
      <trkpt lat="59.8211974" lon="17.4950296">
        <ele>30.4188</ele>
        <time>2017-11-03T14:55:49Z</time>
      </trkpt>
      <trkpt lat="59.820728" lon="17.4944179">
        <ele>30.4188</ele>
        <time>2017-11-03T14:55:59Z</time>
      </trkpt>
      <trkpt lat="59.8204245" lon="17.4939798">
        <ele>30.8995</ele>
        <time>2017-11-03T14:56:06Z</time>
      </trkpt>
      <trkpt lat="59.820149" lon="17.4935632">
        <ele>30.4188</ele>
        <time>2017-11-03T14:56:13Z</time>
      </trkpt>
      <trkpt lat="59.8197465" lon="17.4929307">
        <ele>31.3801</ele>
        <time>2017-11-03T14:56:23Z</time>
      </trkpt>
      <trkpt lat="59.8195485" lon="17.4926216">
        <ele>31.8607</ele>
        <time>2017-11-03T14:56:29Z</time>
      </trkpt>
      <trkpt lat="59.8194906" lon="17.4925925">
        <ele>31.3801</ele>
        <time>2017-11-03T14:56:34Z</time>
      </trkpt>
      <trkpt lat="59.8194518" lon="17.4925966">
        <ele>30.8995</ele>
        <time>2017-11-03T14:56:36Z</time>
      </trkpt>
      <trkpt lat="59.8193546" lon="17.4927028">
        <ele>30.8995</ele>
        <time>2017-11-03T14:56:41Z</time>
      </trkpt>
      <trkpt lat="59.8192249" lon="17.492665">
        <ele>30.4188</ele>
        <time>2017-11-03T14:56:45Z</time>
      </trkpt>
      <trkpt lat="59.8191096" lon="17.4928163">
        <ele>30.4188</ele>
        <time>2017-11-03T14:56:48Z</time>
      </trkpt>
      <trkpt lat="59.8189793" lon="17.4931617">
        <ele>29.9381</ele>
        <time>2017-11-03T14:56:52Z</time>
      </trkpt>
      <trkpt lat="59.8187307" lon="17.4942743">
        <ele>28.0155</ele>
        <time>2017-11-03T14:57:02Z</time>
      </trkpt>
      <trkpt lat="59.8185308" lon="17.4951344">
        <ele>26.5736</ele>
        <time>2017-11-03T14:57:09Z</time>
      </trkpt>
      <trkpt lat="59.8183203" lon="17.4959787">
        <ele>25.1317</ele>
        <time>2017-11-03T14:57:16Z</time>
      </trkpt>
      <trkpt lat="59.8183051" lon="17.496338">
        <ele>24.651</ele>
        <time>2017-11-03T14:57:20Z</time>
      </trkpt>
      <trkpt lat="59.8183644" lon="17.4964391">
        <ele>24.651</ele>
        <time>2017-11-03T14:57:22Z</time>
      </trkpt>
      <trkpt lat="59.81857" lon="17.4966147">
        <ele>25.1317</ele>
        <time>2017-11-03T14:57:27Z</time>
      </trkpt>
      <trkpt lat="59.8188573" lon="17.4968615">
        <ele>24.651</ele>
        <time>2017-11-03T14:57:33Z</time>
      </trkpt>
      <trkpt lat="59.8189503" lon="17.4969566">
        <ele>24.651</ele>
        <time>2017-11-03T14:57:35Z</time>
      </trkpt>
      <trkpt lat="59.8190883" lon="17.4971114">
        <ele>24.651</ele>
        <time>2017-11-03T14:57:38Z</time>
      </trkpt>
      <trkpt lat="59.8195066" lon="17.4974269">
        <ele>24.1703</ele>
        <time>2017-11-03T14:57:46Z</time>
      </trkpt>
      <trkpt lat="59.8196983" lon="17.4975976">
        <ele>24.1703</ele>
        <time>2017-11-03T14:57:50Z</time>
      </trkpt>
      <trkpt lat="59.8199356" lon="17.4978244">
        <ele>24.1703</ele>
        <time>2017-11-03T14:57:55Z</time>
      </trkpt>
      <trkpt lat="59.8202898" lon="17.4981119">
        <ele>26.0929</ele>
        <time>2017-11-03T14:58:02Z</time>
      </trkpt>
      <trkpt lat="59.8206365" lon="17.4984157">
        <ele>26.0929</ele>
        <time>2017-11-03T14:58:09Z</time>
      </trkpt>
      <trkpt lat="59.8209689" lon="17.4986925">
        <ele>26.0929</ele>
        <time>2017-11-03T14:58:16Z</time>
      </trkpt>
      <trkpt lat="59.8213883" lon="17.4990479">
        <ele>26.0929</ele>
        <time>2017-11-03T14:58:25Z</time>
      </trkpt>
      <trkpt lat="59.821847" lon="17.4994324">
        <ele>26.0929</ele>
        <time>2017-11-03T14:58:35Z</time>
      </trkpt>
      <trkpt lat="59.8222573" lon="17.4997887">
        <ele>27.0543</ele>
        <time>2017-11-03T14:58:45Z</time>
      </trkpt>
      <trkpt lat="59.8226457" lon="17.5001295">
        <ele>27.5349</ele>
        <time>2017-11-03T14:58:55Z</time>
      </trkpt>
      <trkpt lat="59.8227187" lon="17.5001989">
        <ele>28.0155</ele>
        <time>2017-11-03T14:58:57Z</time>
      </trkpt>
      <trkpt lat="59.8231042" lon="17.5005267">
        <ele>28.4962</ele>
        <time>2017-11-03T14:59:07Z</time>
      </trkpt>
      <trkpt lat="59.8234127" lon="17.5008174">
        <ele>28.0155</ele>
        <time>2017-11-03T14:59:15Z</time>
      </trkpt>
      <trkpt lat="59.823675" lon="17.5011091">
        <ele>28.4962</ele>
        <time>2017-11-03T14:59:22Z</time>
      </trkpt>
      <trkpt lat="59.8240146" lon="17.5014272">
        <ele>31.8607</ele>
        <time>2017-11-03T14:59:30Z</time>
      </trkpt>
      <trkpt lat="59.8242568" lon="17.5016722">
        <ele>32.3416</ele>
        <time>2017-11-03T14:59:36Z</time>
      </trkpt>
      <trkpt lat="59.8243287" lon="17.5017483">
        <ele>31.8607</ele>
        <time>2017-11-03T14:59:38Z</time>
      </trkpt>
      <trkpt lat="59.8246147" lon="17.5020037">
        <ele>33.3029</ele>
        <time>2017-11-03T14:59:45Z</time>
      </trkpt>
      <trkpt lat="59.8248431" lon="17.5022534">
        <ele>34.7449</ele>
        <time>2017-11-03T14:59:51Z</time>
      </trkpt>
      <trkpt lat="59.82517" lon="17.5025814">
        <ele>35.2255</ele>
        <time>2017-11-03T14:59:59Z</time>
      </trkpt>
      <trkpt lat="59.8254382" lon="17.5028378">
        <ele>35.2255</ele>
        <time>2017-11-03T15:00:05Z</time>
      </trkpt>
      <trkpt lat="59.825845" lon="17.5032405">
        <ele>34.7449</ele>
        <time>2017-11-03T15:00:14Z</time>
      </trkpt>
      <trkpt lat="59.8261988" lon="17.503606">
        <ele>34.2642</ele>
        <time>2017-11-03T15:00:22Z</time>
      </trkpt>
      <trkpt lat="59.8265743" lon="17.5039788">
        <ele>34.2642</ele>
        <time>2017-11-03T15:00:30Z</time>
      </trkpt>
      <trkpt lat="59.8270268" lon="17.5044127">
        <ele>33.7834</ele>
        <time>2017-11-03T15:00:39Z</time>
      </trkpt>
      <trkpt lat="59.8276281" lon="17.5049989">
        <ele>32.8223</ele>
        <time>2017-11-03T15:00:50Z</time>
      </trkpt>
      <trkpt lat="59.8281846" lon="17.5055526">
        <ele>31.8607</ele>
        <time>2017-11-03T15:01:00Z</time>
      </trkpt>
      <trkpt lat="59.8286247" lon="17.5060188">
        <ele>31.3801</ele>
        <time>2017-11-03T15:01:08Z</time>
      </trkpt>
      <trkpt lat="59.8291" lon="17.506675">
        <ele>28.9769</ele>
        <time>2017-11-03T15:01:17Z</time>
      </trkpt>
      <trkpt lat="59.8294503" lon="17.5072347">
        <ele>28.0155</ele>
        <time>2017-11-03T15:01:24Z</time>
      </trkpt>
      <trkpt lat="59.8298633" lon="17.5080499">
        <ele>27.5349</ele>
        <time>2017-11-03T15:01:33Z</time>
      </trkpt>
      <trkpt lat="59.8301521" lon="17.5087278">
        <ele>27.5349</ele>
        <time>2017-11-03T15:01:40Z</time>
      </trkpt>
      <trkpt lat="59.830541" lon="17.5096775">
        <ele>28.0155</ele>
        <time>2017-11-03T15:01:50Z</time>
      </trkpt>
      <trkpt lat="59.8308888" lon="17.5105294">
        <ele>27.5349</ele>
        <time>2017-11-03T15:01:59Z</time>
      </trkpt>
      <trkpt lat="59.8312597" lon="17.5114579">
        <ele>27.5349</ele>
        <time>2017-11-03T15:02:09Z</time>
      </trkpt>
      <trkpt lat="59.8314786" lon="17.5120074">
        <ele>28.9769</ele>
        <time>2017-11-03T15:02:15Z</time>
      </trkpt>
      <trkpt lat="59.8316907" lon="17.5125031">
        <ele>30.4188</ele>
        <time>2017-11-03T15:02:21Z</time>
      </trkpt>
      <trkpt lat="59.8317223" lon="17.5125859">
        <ele>30.4188</ele>
        <time>2017-11-03T15:02:22Z</time>
      </trkpt>
      <trkpt lat="59.8319651" lon="17.5131529">
        <ele>31.3801</ele>
        <time>2017-11-03T15:02:29Z</time>
      </trkpt>
      <trkpt lat="59.8322323" lon="17.5136998">
        <ele>31.8607</ele>
        <time>2017-11-03T15:02:36Z</time>
      </trkpt>
      <trkpt lat="59.8324994" lon="17.5142588">
        <ele>32.3416</ele>
        <time>2017-11-03T15:02:43Z</time>
      </trkpt>
      <trkpt lat="59.8326874" lon="17.5146707">
        <ele>32.8223</ele>
        <time>2017-11-03T15:02:48Z</time>
      </trkpt>
      <trkpt lat="59.8329317" lon="17.5152653">
        <ele>34.2642</ele>
        <time>2017-11-03T15:02:55Z</time>
      </trkpt>
      <trkpt lat="59.8329976" lon="17.5154425">
        <ele>34.2642</ele>
        <time>2017-11-03T15:02:57Z</time>
      </trkpt>
      <trkpt lat="59.8331779" lon="17.5160841">
        <ele>34.2642</ele>
        <time>2017-11-03T15:03:04Z</time>
      </trkpt>
      <trkpt lat="59.8332619" lon="17.5163344">
        <ele>33.7834</ele>
        <time>2017-11-03T15:03:07Z</time>
      </trkpt>
      <trkpt lat="59.833335" lon="17.5165366">
        <ele>32.8223</ele>
        <time>2017-11-03T15:03:10Z</time>
      </trkpt>
      <trkpt lat="59.8333732" lon="17.516652">
        <ele>32.8223</ele>
        <time>2017-11-03T15:03:12Z</time>
      </trkpt>
      <trkpt lat="59.8334053" lon="17.5167908">
        <ele>32.3416</ele>
        <time>2017-11-03T15:03:14Z</time>
      </trkpt>
      <trkpt lat="59.8335286" lon="17.5173931">
        <ele>30.8995</ele>
        <time>2017-11-03T15:03:21Z</time>
      </trkpt>
      <trkpt lat="59.8336425" lon="17.517991">
        <ele>29.9381</ele>
        <time>2017-11-03T15:03:27Z</time>
      </trkpt>
      <trkpt lat="59.8337693" lon="17.5188627">
        <ele>29.9381</ele>
        <time>2017-11-03T15:03:35Z</time>
      </trkpt>
      <trkpt lat="59.8338884" lon="17.5199492">
        <ele>30.4188</ele>
        <time>2017-11-03T15:03:45Z</time>
      </trkpt>
      <trkpt lat="59.8339236" lon="17.5208208">
        <ele>29.9381</ele>
        <time>2017-11-03T15:03:53Z</time>
      </trkpt>
      <trkpt lat="59.8339352" lon="17.5217347">
        <ele>28.0155</ele>
        <time>2017-11-03T15:04:01Z</time>
      </trkpt>
      <trkpt lat="59.8339341" lon="17.5228454">
        <ele>27.0543</ele>
        <time>2017-11-03T15:04:11Z</time>
      </trkpt>
      <trkpt lat="59.8339301" lon="17.5235983">
        <ele>28.0155</ele>
        <time>2017-11-03T15:04:18Z</time>
      </trkpt>
      <trkpt lat="59.8339311" lon="17.524231">
        <ele>28.0155</ele>
        <time>2017-11-03T15:04:24Z</time>
      </trkpt>
      <trkpt lat="59.8339332" lon="17.5253099">
        <ele>26.0929</ele>
        <time>2017-11-03T15:04:34Z</time>
      </trkpt>
      <trkpt lat="59.8339383" lon="17.5261713">
        <ele>24.651</ele>
        <time>2017-11-03T15:04:42Z</time>
      </trkpt>
      <trkpt lat="59.8339294" lon="17.5266066">
        <ele>24.651</ele>
        <time>2017-11-03T15:04:46Z</time>
      </trkpt>
      <trkpt lat="59.8339332" lon="17.5275114">
        <ele>25.1317</ele>
        <time>2017-11-03T15:04:55Z</time>
      </trkpt>
      <trkpt lat="59.8339413" lon="17.5284256">
        <ele>26.5736</ele>
        <time>2017-11-03T15:05:05Z</time>
      </trkpt>
      <trkpt lat="59.8339539" lon="17.5288089">
        <ele>27.0543</ele>
        <time>2017-11-03T15:05:09Z</time>
      </trkpt>
      <trkpt lat="59.8339897" lon="17.5297989">
        <ele>28.0155</ele>
        <time>2017-11-03T15:05:19Z</time>
      </trkpt>
      <trkpt lat="59.8340391" lon="17.5306142">
        <ele>28.9769</ele>
        <time>2017-11-03T15:05:28Z</time>
      </trkpt>
      <trkpt lat="59.8341148" lon="17.5314195">
        <ele>29.9381</ele>
        <time>2017-11-03T15:05:37Z</time>
      </trkpt>
      <trkpt lat="59.8341918" lon="17.5321556">
        <ele>31.3801</ele>
        <time>2017-11-03T15:05:45Z</time>
      </trkpt>
      <trkpt lat="59.8342839" lon="17.5330966">
        <ele>31.3801</ele>
        <time>2017-11-03T15:05:55Z</time>
      </trkpt>
      <trkpt lat="59.8343793" lon="17.5340048">
        <ele>31.3801</ele>
        <time>2017-11-03T15:06:04Z</time>
      </trkpt>
      <trkpt lat="59.834482" lon="17.5349927">
        <ele>30.8995</ele>
        <time>2017-11-03T15:06:13Z</time>
      </trkpt>
      <trkpt lat="59.8345722" lon="17.5358904">
        <ele>29.9381</ele>
        <time>2017-11-03T15:06:21Z</time>
      </trkpt>
      <trkpt lat="59.834663" lon="17.5368094">
        <ele>29.9381</ele>
        <time>2017-11-03T15:06:29Z</time>
      </trkpt>
      <trkpt lat="59.8348066" lon="17.5380995">
        <ele>29.9381</ele>
        <time>2017-11-03T15:06:40Z</time>
      </trkpt>
      <trkpt lat="59.8349389" lon="17.5392891">
        <ele>28.9769</ele>
        <time>2017-11-03T15:06:50Z</time>
      </trkpt>
      <trkpt lat="59.8350988" lon="17.5404411">
        <ele>27.5349</ele>
        <time>2017-11-03T15:07:00Z</time>
      </trkpt>
      <trkpt lat="59.8352607" lon="17.5412124">
        <ele>27.5349</ele>
        <time>2017-11-03T15:07:07Z</time>
      </trkpt>
      <trkpt lat="59.8355424" lon="17.5422837">
        <ele>27.0543</ele>
        <time>2017-11-03T15:07:17Z</time>
      </trkpt>
      <trkpt lat="59.8358136" lon="17.5431419">
        <ele>28.4962</ele>
        <time>2017-11-03T15:07:26Z</time>
      </trkpt>
      <trkpt lat="59.8359668" lon="17.5435579">
        <ele>29.4575</ele>
        <time>2017-11-03T15:07:31Z</time>
      </trkpt>
      <trkpt lat="59.836019" lon="17.5437112">
        <ele>29.4575</ele>
        <time>2017-11-03T15:07:33Z</time>
      </trkpt>
      <trkpt lat="59.8362448" lon="17.5442345">
        <ele>29.9381</ele>
        <time>2017-11-03T15:07:40Z</time>
      </trkpt>
      <trkpt lat="59.8363438" lon="17.5444665">
        <ele>30.8995</ele>
        <time>2017-11-03T15:07:43Z</time>
      </trkpt>
      <trkpt lat="59.8365319" lon="17.5449409">
        <ele>31.8607</ele>
        <time>2017-11-03T15:07:49Z</time>
      </trkpt>
      <trkpt lat="59.8367558" lon="17.545508">
        <ele>33.7834</ele>
        <time>2017-11-03T15:07:56Z</time>
      </trkpt>
      <trkpt lat="59.8370863" lon="17.5462271">
        <ele>34.7449</ele>
        <time>2017-11-03T15:08:05Z</time>
      </trkpt>
      <trkpt lat="59.8373913" lon="17.5469317">
        <ele>34.7449</ele>
        <time>2017-11-03T15:08:13Z</time>
      </trkpt>
      <trkpt lat="59.8374276" lon="17.5470219">
        <ele>34.7449</ele>
        <time>2017-11-03T15:08:14Z</time>
      </trkpt>
      <trkpt lat="59.8375313" lon="17.547288">
        <ele>34.2642</ele>
        <time>2017-11-03T15:08:17Z</time>
      </trkpt>
      <trkpt lat="59.8377711" lon="17.5478531">
        <ele>34.7449</ele>
        <time>2017-11-03T15:08:23Z</time>
      </trkpt>
      <trkpt lat="59.8379284" lon="17.5482247">
        <ele>34.2642</ele>
        <time>2017-11-03T15:08:27Z</time>
      </trkpt>
      <trkpt lat="59.8382067" lon="17.5488457">
        <ele>32.3416</ele>
        <time>2017-11-03T15:08:34Z</time>
      </trkpt>
      <trkpt lat="59.8383552" lon="17.549281">
        <ele>31.3801</ele>
        <time>2017-11-03T15:08:39Z</time>
      </trkpt>
      <trkpt lat="59.83853" lon="17.5497865">
        <ele>29.9381</ele>
        <time>2017-11-03T15:08:45Z</time>
      </trkpt>
      <trkpt lat="59.8386749" lon="17.5503295">
        <ele>31.3801</ele>
        <time>2017-11-03T15:08:51Z</time>
      </trkpt>
      <trkpt lat="59.8388447" lon="17.5509007">
        <ele>30.8995</ele>
        <time>2017-11-03T15:08:57Z</time>
      </trkpt>
      <trkpt lat="59.8389834" lon="17.5515613">
        <ele>31.8607</ele>
        <time>2017-11-03T15:09:03Z</time>
      </trkpt>
      <trkpt lat="59.8391222" lon="17.5523715">
        <ele>31.8607</ele>
        <time>2017-11-03T15:09:10Z</time>
      </trkpt>
      <trkpt lat="59.8392272" lon="17.5531769">
        <ele>30.4188</ele>
        <time>2017-11-03T15:09:17Z</time>
      </trkpt>
      <trkpt lat="59.8392975" lon="17.5541135">
        <ele>29.9381</ele>
        <time>2017-11-03T15:09:25Z</time>
      </trkpt>
      <trkpt lat="59.8392983" lon="17.5543491">
        <ele>29.4575</ele>
        <time>2017-11-03T15:09:27Z</time>
      </trkpt>
      <trkpt lat="59.8393112" lon="17.5552303">
        <ele>29.9381</ele>
        <time>2017-11-03T15:09:34Z</time>
      </trkpt>
      <trkpt lat="59.8392947" lon="17.5560148">
        <ele>28.4962</ele>
        <time>2017-11-03T15:09:40Z</time>
      </trkpt>
      <trkpt lat="59.8392837" lon="17.5571074">
        <ele>28.4962</ele>
        <time>2017-11-03T15:09:48Z</time>
      </trkpt>
      <trkpt lat="59.8392738" lon="17.5579331">
        <ele>27.5349</ele>
        <time>2017-11-03T15:09:54Z</time>
      </trkpt>
      <trkpt lat="59.8392568" lon="17.5583397">
        <ele>27.5349</ele>
        <time>2017-11-03T15:09:57Z</time>
      </trkpt>
      <trkpt lat="59.8392791" lon="17.5591795">
        <ele>26.0929</ele>
        <time>2017-11-03T15:10:03Z</time>
      </trkpt>
      <trkpt lat="59.8393293" lon="17.5600121">
        <ele>24.651</ele>
        <time>2017-11-03T15:10:09Z</time>
      </trkpt>
      <trkpt lat="59.8394359" lon="17.5612519">
        <ele>23.209</ele>
        <time>2017-11-03T15:10:18Z</time>
      </trkpt>
      <trkpt lat="59.839557" lon="17.5624086">
        <ele>22.2476</ele>
        <time>2017-11-03T15:10:27Z</time>
      </trkpt>
      <trkpt lat="59.8396741" lon="17.5632352">
        <ele>22.2476</ele>
        <time>2017-11-03T15:10:34Z</time>
      </trkpt>
      <trkpt lat="59.8398794" lon="17.5643517">
        <ele>22.7283</ele>
        <time>2017-11-03T15:10:44Z</time>
      </trkpt>
      <trkpt lat="59.8400732" lon="17.565303">
        <ele>22.7283</ele>
        <time>2017-11-03T15:10:53Z</time>
      </trkpt>
      <trkpt lat="59.8402763" lon="17.5663253">
        <ele>22.7283</ele>
        <time>2017-11-03T15:11:03Z</time>
      </trkpt>
      <trkpt lat="59.8404171" lon="17.5670098">
        <ele>22.7283</ele>
        <time>2017-11-03T15:11:10Z</time>
      </trkpt>
      <trkpt lat="59.8405337" lon="17.5676177">
        <ele>22.7283</ele>
        <time>2017-11-03T15:11:17Z</time>
      </trkpt>
      <trkpt lat="59.8406238" lon="17.5677412">
        <ele>23.209</ele>
        <time>2017-11-03T15:11:21Z</time>
      </trkpt>
      <trkpt lat="59.8406565" lon="17.5676547">
        <ele>23.6896</ele>
        <time>2017-11-03T15:11:23Z</time>
      </trkpt>
      <trkpt lat="59.8408102" lon="17.567208">
        <ele>24.1703</ele>
        <time>2017-11-03T15:11:31Z</time>
      </trkpt>
      <trkpt lat="59.8409202" lon="17.5669553">
        <ele>23.6896</ele>
        <time>2017-11-03T15:11:36Z</time>
      </trkpt>
      <trkpt lat="59.8410631" lon="17.5667411">
        <ele>23.6896</ele>
        <time>2017-11-03T15:11:41Z</time>
      </trkpt>
      <trkpt lat="59.841204" lon="17.5663363">
        <ele>24.651</ele>
        <time>2017-11-03T15:11:47Z</time>
      </trkpt>
      <trkpt lat="59.8412338" lon="17.5662678">
        <ele>24.1703</ele>
        <time>2017-11-03T15:11:48Z</time>
      </trkpt>
      <trkpt lat="59.8413888" lon="17.5660422">
        <ele>23.209</ele>
        <time>2017-11-03T15:11:52Z</time>
      </trkpt>
      <trkpt lat="59.8415143" lon="17.5660141">
        <ele>22.7283</ele>
        <time>2017-11-03T15:11:55Z</time>
      </trkpt>
      <trkpt lat="59.8416568" lon="17.5661766">
        <ele>20.8057</ele>
        <time>2017-11-03T15:11:59Z</time>
      </trkpt>
      <trkpt lat="59.8416717" lon="17.5664556">
        <ele>15.999</ele>
        <time>2017-11-03T15:12:03Z</time>
      </trkpt>
      <trkpt lat="59.8416681" lon="17.5665498">
        <ele>14.557</ele>
        <time>2017-11-03T15:12:04Z</time>
      </trkpt>
      <trkpt lat="59.8416977" lon="17.5671774">
        <ele>12.1538</ele>
        <time>2017-11-03T15:12:10Z</time>
      </trkpt>
      <trkpt lat="59.8417135" lon="17.5675331">
        <ele>14.0764</ele>
        <time>2017-11-03T15:12:14Z</time>
      </trkpt>
      <trkpt lat="59.8417064" lon="17.5677043">
        <ele>14.557</ele>
        <time>2017-11-03T15:12:16Z</time>
      </trkpt>
      <trkpt lat="59.8417307" lon="17.5681259">
        <ele>16.4797</ele>
        <time>2017-11-03T15:12:21Z</time>
      </trkpt>
      <trkpt lat="59.841741" lon="17.5682027">
        <ele>16.9604</ele>
        <time>2017-11-03T15:12:22Z</time>
      </trkpt>
      <trkpt lat="59.8417616" lon="17.5683777">
        <ele>16.9604</ele>
        <time>2017-11-03T15:12:24Z</time>
      </trkpt>
      <trkpt lat="59.8418096" lon="17.5685974">
        <ele>15.999</ele>
        <time>2017-11-03T15:12:28Z</time>
      </trkpt>
      <trkpt lat="59.8418856" lon="17.5688864">
        <ele>15.999</ele>
        <time>2017-11-03T15:12:33Z</time>
      </trkpt>
      <trkpt lat="59.8417914" lon="17.5693435">
        <ele>10.7118</ele>
        <time>2017-11-03T15:12:40Z</time>
      </trkpt>
      <trkpt lat="59.8417946" lon="17.56955">
        <ele>9.2699</ele>
        <time>2017-11-03T15:12:43Z</time>
      </trkpt>
      <trkpt lat="59.8419029" lon="17.5697112">
        <ele>7.82788</ele>
        <time>2017-11-03T15:12:48Z</time>
      </trkpt>
      <trkpt lat="59.841995" lon="17.5697278">
        <ele>6.86646</ele>
        <time>2017-11-03T15:12:52Z</time>
      </trkpt>
      <trkpt lat="59.8420353" lon="17.5696014">
        <ele>6.38586</ele>
        <time>2017-11-03T15:12:55Z</time>
      </trkpt>
      <trkpt lat="59.8421095" lon="17.5692702">
        <ele>6.86646</ele>
        <time>2017-11-03T15:13:01Z</time>
      </trkpt>
      <trkpt lat="59.8421805" lon="17.5689885">
        <ele>6.86646</ele>
        <time>2017-11-03T15:13:07Z</time>
      </trkpt>
      <trkpt lat="59.8422156" lon="17.5686198">
        <ele>9.75061</ele>
        <time>2017-11-03T15:13:13Z</time>
      </trkpt>
      <trkpt lat="59.8422286" lon="17.5682497">
        <ele>10.7118</ele>
        <time>2017-11-03T15:13:18Z</time>
      </trkpt>
      <trkpt lat="59.8422344" lon="17.5677605">
        <ele>13.1151</ele>
        <time>2017-11-03T15:13:23Z</time>
      </trkpt>
      <trkpt lat="59.8422363" lon="17.5676568">
        <ele>14.0764</ele>
        <time>2017-11-03T15:13:24Z</time>
      </trkpt>
      <trkpt lat="59.8422504" lon="17.5674713">
        <ele>15.5184</ele>
        <time>2017-11-03T15:13:26Z</time>
      </trkpt>
      <trkpt lat="59.8422429" lon="17.5671598">
        <ele>18.8831</ele>
        <time>2017-11-03T15:13:30Z</time>
      </trkpt>
      <trkpt lat="59.8421944" lon="17.5666903">
        <ele>21.2864</ele>
        <time>2017-11-03T15:13:38Z</time>
      </trkpt>
      <trkpt lat="59.8422022" lon="17.5664343">
        <ele>23.209</ele>
        <time>2017-11-03T15:13:43Z</time>
      </trkpt>
      <trkpt lat="59.8422664" lon="17.5662111">
        <ele>23.6896</ele>
        <time>2017-11-03T15:13:48Z</time>
      </trkpt>
      <trkpt lat="59.8423895" lon="17.5658903">
        <ele>23.6896</ele>
        <time>2017-11-03T15:13:56Z</time>
      </trkpt>
      <trkpt lat="59.842471" lon="17.565748">
        <ele>23.6896</ele>
        <time>2017-11-03T15:14:01Z</time>
      </trkpt>
      <trkpt lat="59.8425713" lon="17.5658104">
        <ele>23.6896</ele>
        <time>2017-11-03T15:14:06Z</time>
      </trkpt>
      <trkpt lat="59.842587" lon="17.5658499">
        <ele>23.6896</ele>
        <time>2017-11-03T15:14:07Z</time>
      </trkpt>
      <trkpt lat="59.8426839" lon="17.5662">
        <ele>23.6896</ele>
        <time>2017-11-03T15:14:14Z</time>
      </trkpt>
      <trkpt lat="59.8427819" lon="17.5665002">
        <ele>24.1703</ele>
        <time>2017-11-03T15:14:20Z</time>
      </trkpt>
      <trkpt lat="59.8428808" lon="17.5667086">
        <ele>24.651</ele>
        <time>2017-11-03T15:14:25Z</time>
      </trkpt>
      <trkpt lat="59.8429746" lon="17.5669684">
        <ele>24.1703</ele>
        <time>2017-11-03T15:14:29Z</time>
      </trkpt>
      <trkpt lat="59.8431062" lon="17.5669994">
        <ele>24.1703</ele>
        <time>2017-11-03T15:14:33Z</time>
      </trkpt>
      <trkpt lat="59.8434262" lon="17.5667017">
        <ele>24.651</ele>
        <time>2017-11-03T15:14:42Z</time>
      </trkpt>
      <trkpt lat="59.8435683" lon="17.5667121">
        <ele>25.1317</ele>
        <time>2017-11-03T15:14:46Z</time>
      </trkpt>
      <trkpt lat="59.8436894" lon="17.5668953">
        <ele>26.0929</ele>
        <time>2017-11-03T15:14:50Z</time>
      </trkpt>
      <trkpt lat="59.8438171" lon="17.5671377">
        <ele>26.0929</ele>
        <time>2017-11-03T15:14:55Z</time>
      </trkpt>
      <trkpt lat="59.8438722" lon="17.5674216">
        <ele>25.6123</ele>
        <time>2017-11-03T15:14:59Z</time>
      </trkpt>
      <trkpt lat="59.8439174" lon="17.5678546">
        <ele>25.1317</ele>
        <time>2017-11-03T15:15:04Z</time>
      </trkpt>
      <trkpt lat="59.8439223" lon="17.568178">
        <ele>24.1703</ele>
        <time>2017-11-03T15:15:08Z</time>
      </trkpt>
      <trkpt lat="59.8440314" lon="17.568571">
        <ele>23.209</ele>
        <time>2017-11-03T15:15:13Z</time>
      </trkpt>
      <trkpt lat="59.844164" lon="17.568904">
        <ele>23.6896</ele>
        <time>2017-11-03T15:15:17Z</time>
      </trkpt>
      <trkpt lat="59.844271" lon="17.56935">
        <ele>23.6896</ele>
        <time>2017-11-03T15:15:22Z</time>
      </trkpt>
      <trkpt lat="59.8443415" lon="17.5696376">
        <ele>23.6896</ele>
        <time>2017-11-03T15:15:25Z</time>
      </trkpt>
      <trkpt lat="59.8444072" lon="17.5698151">
        <ele>24.1703</ele>
        <time>2017-11-03T15:15:27Z</time>
      </trkpt>
      <trkpt lat="59.8445123" lon="17.57018">
        <ele>24.1703</ele>
        <time>2017-11-03T15:15:31Z</time>
      </trkpt>
      <trkpt lat="59.8446548" lon="17.5706286">
        <ele>25.6123</ele>
        <time>2017-11-03T15:15:37Z</time>
      </trkpt>
      <trkpt lat="59.8446798" lon="17.5706854">
        <ele>26.0929</ele>
        <time>2017-11-03T15:15:38Z</time>
      </trkpt>
      <trkpt lat="59.8448042" lon="17.5710948">
        <ele>27.5349</ele>
        <time>2017-11-03T15:15:44Z</time>
      </trkpt>
      <trkpt lat="59.8448586" lon="17.5713909">
        <ele>27.5349</ele>
        <time>2017-11-03T15:15:48Z</time>
      </trkpt>
      <trkpt lat="59.8449358" lon="17.5717076">
        <ele>26.5736</ele>
        <time>2017-11-03T15:15:52Z</time>
      </trkpt>
      <trkpt lat="59.8449824" lon="17.571882">
        <ele>26.5736</ele>
        <time>2017-11-03T15:15:54Z</time>
      </trkpt>
      <trkpt lat="59.8451549" lon="17.5723957">
        <ele>25.1317</ele>
        <time>2017-11-03T15:16:00Z</time>
      </trkpt>
      <trkpt lat="59.8453559" lon="17.5728716">
        <ele>24.651</ele>
        <time>2017-11-03T15:16:05Z</time>
      </trkpt>
      <trkpt lat="59.8456448" lon="17.5734873">
        <ele>25.1317</ele>
        <time>2017-11-03T15:16:13Z</time>
      </trkpt>
      <trkpt lat="59.8458555" lon="17.5740029">
        <ele>25.6123</ele>
        <time>2017-11-03T15:16:19Z</time>
      </trkpt>
      <trkpt lat="59.8459896" lon="17.5742863">
        <ele>26.5736</ele>
        <time>2017-11-03T15:16:23Z</time>
      </trkpt>
      <trkpt lat="59.8461562" lon="17.5746208">
        <ele>27.0543</ele>
        <time>2017-11-03T15:16:28Z</time>
      </trkpt>
      <trkpt lat="59.846274" lon="17.5748215">
        <ele>27.5349</ele>
        <time>2017-11-03T15:16:31Z</time>
      </trkpt>
      <trkpt lat="59.8464158" lon="17.5751172">
        <ele>25.6123</ele>
        <time>2017-11-03T15:16:35Z</time>
      </trkpt>
      <trkpt lat="59.8465025" lon="17.5755139">
        <ele>23.209</ele>
        <time>2017-11-03T15:16:39Z</time>
      </trkpt>
      <trkpt lat="59.8465312" lon="17.5757564">
        <ele>22.7283</ele>
        <time>2017-11-03T15:16:41Z</time>
      </trkpt>
      <trkpt lat="59.846638" lon="17.5764245">
        <ele>20.8057</ele>
        <time>2017-11-03T15:16:47Z</time>
      </trkpt>
      <trkpt lat="59.8466555" lon="17.5765303">
        <ele>19.8444</ele>
        <time>2017-11-03T15:16:48Z</time>
      </trkpt>
      <trkpt lat="59.8466916" lon="17.5772472">
        <ele>17.9218</ele>
        <time>2017-11-03T15:16:54Z</time>
      </trkpt>
      <trkpt lat="59.846771" lon="17.5779158">
        <ele>15.999</ele>
        <time>2017-11-03T15:17:00Z</time>
      </trkpt>
      <trkpt lat="59.8468884" lon="17.5788145">
        <ele>14.557</ele>
        <time>2017-11-03T15:17:08Z</time>
      </trkpt>
      <trkpt lat="59.8469814" lon="17.5796061">
        <ele>14.0764</ele>
        <time>2017-11-03T15:17:15Z</time>
      </trkpt>
      <trkpt lat="59.8470828" lon="17.5806915">
        <ele>13.5958</ele>
        <time>2017-11-03T15:17:23Z</time>
      </trkpt>
      <trkpt lat="59.8471709" lon="17.5816807">
        <ele>12.6344</ele>
        <time>2017-11-03T15:17:31Z</time>
      </trkpt>
      <trkpt lat="59.8472273" lon="17.582194">
        <ele>12.6344</ele>
        <time>2017-11-03T15:17:36Z</time>
      </trkpt>
      <trkpt lat="59.8472657" lon="17.5823082">
        <ele>12.6344</ele>
        <time>2017-11-03T15:17:39Z</time>
      </trkpt>
      <trkpt lat="59.8473205" lon="17.5824423">
        <ele>12.1538</ele>
        <time>2017-11-03T15:17:43Z</time>
      </trkpt>
      <trkpt lat="59.8473096" lon="17.5825044">
        <ele>12.1538</ele>
        <time>2017-11-03T15:17:44Z</time>
      </trkpt>
      <trkpt lat="59.847186" lon="17.5830146">
        <ele>11.6732</ele>
        <time>2017-11-03T15:17:50Z</time>
      </trkpt>
      <trkpt lat="59.8470239" lon="17.5837761">
        <ele>11.6732</ele>
        <time>2017-11-03T15:17:57Z</time>
      </trkpt>
      <trkpt lat="59.8469904" lon="17.5840195">
        <ele>11.6732</ele>
        <time>2017-11-03T15:17:59Z</time>
      </trkpt>
      <trkpt lat="59.8468814" lon="17.5844878">
        <ele>11.1925</ele>
        <time>2017-11-03T15:18:03Z</time>
      </trkpt>
      <trkpt lat="59.8468047" lon="17.5847113">
        <ele>11.1925</ele>
        <time>2017-11-03T15:18:05Z</time>
      </trkpt>
      <trkpt lat="59.8466361" lon="17.5854013">
        <ele>11.6732</ele>
        <time>2017-11-03T15:18:11Z</time>
      </trkpt>
      <trkpt lat="59.8465667" lon="17.5858606">
        <ele>11.6732</ele>
        <time>2017-11-03T15:18:15Z</time>
      </trkpt>
      <trkpt lat="59.8463036" lon="17.5869453">
        <ele>12.6344</ele>
        <time>2017-11-03T15:18:26Z</time>
      </trkpt>
      <trkpt lat="59.8461649" lon="17.5875457">
        <ele>13.1151</ele>
        <time>2017-11-03T15:18:32Z</time>
      </trkpt>
      <trkpt lat="59.8460846" lon="17.5879738">
        <ele>13.1151</ele>
        <time>2017-11-03T15:18:36Z</time>
      </trkpt>
      <trkpt lat="59.8460122" lon="17.5883908">
        <ele>12.1538</ele>
        <time>2017-11-03T15:18:40Z</time>
      </trkpt>
      <trkpt lat="59.8459399" lon="17.5887046">
        <ele>11.6732</ele>
        <time>2017-11-03T15:18:43Z</time>
      </trkpt>
      <trkpt lat="59.8458568" lon="17.589534">
        <ele>11.1925</ele>
        <time>2017-11-03T15:18:51Z</time>
      </trkpt>
      <trkpt lat="59.845866" lon="17.5900756">
        <ele>11.1925</ele>
        <time>2017-11-03T15:18:56Z</time>
      </trkpt>
      <trkpt lat="59.8458976" lon="17.5903662">
        <ele>11.6732</ele>
        <time>2017-11-03T15:18:59Z</time>
      </trkpt>
      <trkpt lat="59.8459038" lon="17.5905438">
        <ele>11.6732</ele>
        <time>2017-11-03T15:19:01Z</time>
      </trkpt>
      <trkpt lat="59.8458979" lon="17.5907134">
        <ele>11.6732</ele>
        <time>2017-11-03T15:19:03Z</time>
      </trkpt>
      <trkpt lat="59.8458992" lon="17.5909677">
        <ele>11.6732</ele>
        <time>2017-11-03T15:19:06Z</time>
      </trkpt>
      <trkpt lat="59.8458011" lon="17.5911672">
        <ele>11.6732</ele>
        <time>2017-11-03T15:19:10Z</time>
      </trkpt>
      <trkpt lat="59.8457639" lon="17.5911878">
        <ele>11.6732</ele>
        <time>2017-11-03T15:19:11Z</time>
      </trkpt>
      <trkpt lat="59.8456423" lon="17.5912722">
        <ele>12.1538</ele>
        <time>2017-11-03T15:19:14Z</time>
      </trkpt>
      <trkpt lat="59.8455515" lon="17.5915029">
        <ele>11.6732</ele>
        <time>2017-11-03T15:19:18Z</time>
      </trkpt>
      <trkpt lat="59.8455692" lon="17.5916945">
        <ele>12.1538</ele>
        <time>2017-11-03T15:19:20Z</time>
      </trkpt>
      <trkpt lat="59.8456377" lon="17.5921105">
        <ele>12.6344</ele>
        <time>2017-11-03T15:19:24Z</time>
      </trkpt>
      <trkpt lat="59.8457977" lon="17.5932821">
        <ele>13.1151</ele>
        <time>2017-11-03T15:19:34Z</time>
      </trkpt>
      <trkpt lat="59.8459285" lon="17.5942358">
        <ele>13.5958</ele>
        <time>2017-11-03T15:19:42Z</time>
      </trkpt>
      <trkpt lat="59.8460706" lon="17.5953398">
        <ele>13.5958</ele>
        <time>2017-11-03T15:19:51Z</time>
      </trkpt>
      <trkpt lat="59.8462344" lon="17.5965859">
        <ele>14.557</ele>
        <time>2017-11-03T15:20:01Z</time>
      </trkpt>
      <trkpt lat="59.8463823" lon="17.5977567">
        <ele>15.0377</ele>
        <time>2017-11-03T15:20:10Z</time>
      </trkpt>
      <trkpt lat="59.8465447" lon="17.5990693">
        <ele>15.5184</ele>
        <time>2017-11-03T15:20:20Z</time>
      </trkpt>
      <trkpt lat="59.8466934" lon="17.6001831">
        <ele>16.4797</ele>
        <time>2017-11-03T15:20:29Z</time>
      </trkpt>
      <trkpt lat="59.8468404" lon="17.601167">
        <ele>16.4797</ele>
        <time>2017-11-03T15:20:37Z</time>
      </trkpt>
      <trkpt lat="59.8470293" lon="17.6022462">
        <ele>16.9604</ele>
        <time>2017-11-03T15:20:46Z</time>
      </trkpt>
      <trkpt lat="59.8472933" lon="17.6033409">
        <ele>17.9218</ele>
        <time>2017-11-03T15:20:56Z</time>
      </trkpt>
      <trkpt lat="59.8475754" lon="17.6042211">
        <ele>18.8831</ele>
        <time>2017-11-03T15:21:05Z</time>
      </trkpt>
      <trkpt lat="59.8477983" lon="17.6048406">
        <ele>19.8444</ele>
        <time>2017-11-03T15:21:12Z</time>
      </trkpt>
      <trkpt lat="59.8479685" lon="17.605241">
        <ele>19.8444</ele>
        <time>2017-11-03T15:21:17Z</time>
      </trkpt>
      <trkpt lat="59.8481504" lon="17.605587">
        <ele>19.3638</ele>
        <time>2017-11-03T15:21:22Z</time>
      </trkpt>
      <trkpt lat="59.8482176" lon="17.6057114">
        <ele>18.8831</ele>
        <time>2017-11-03T15:21:24Z</time>
      </trkpt>
    </trkseg>
  </trk>
</gpx>